VIA985 EGKK-KLAX
Flight info
| Callsign | VIA985 |
|---|---|
| Flight time | 11h 18m |
| Altitude | 32000 |
| Route | NOVMA1X NOVMA L620 SAM N19 ADKIK DCT MOPAT DCT PIKIL/M081F340 DCT 57N020W 57N030W 57N040W 56N050W DCT JANJO/N0469F360 DCT DENSO DCT AGLOL DCT MERNU DCT XEXUL/N0468F380 DCT BLUOX DCT RAP J158 DDY J107 NORRA J100 LAS Q70 HAILO DCT KOPLE BOGET2 |
| Aircraft | A343/H-SDE1FGHILORVWXY/L |
Departure
| Time | 2026-05-03 22:46 |
|---|---|
| Airport | London Gatwick Airport (EGKK) |
Arrival
| Time | 2026-05-04 10:04 |
|---|---|
| Airport | Los Angeles International Airport (KLAX) |
| Time | Latitude | Longitude | Altitude | Speed | Heading |
|---|---|---|---|---|---|
| 2026-05-03 22:39 | 51.15216 | -0.18128 | 216 ft | 14 kts | 86° |
| 2026-05-03 22:39 | 51.15227 | -0.17991 | 217 ft | 12 kts | 77° |
| 2026-05-03 22:40 | 51.15245 | -0.17863 | 217 ft | 12 kts | 77° |
| 2026-05-03 22:40 | 51.15262 | -0.17741 | 218 ft | 11 kts | 78° |
| 2026-05-03 22:40 | 51.15279 | -0.17619 | 210 ft | 11 kts | 78° |
| 2026-05-03 22:40 | 51.15294 | -0.17500 | 214 ft | 11 kts | 82° |
| 2026-05-03 22:41 | 51.15296 | -0.17395 | 213 ft | 7 kts | 103° |
| 2026-05-03 22:41 | 51.15272 | -0.17332 | 219 ft | 6 kts | 128° |
| 2026-05-03 22:41 | 51.15252 | -0.17270 | 215 ft | 6 kts | 107° |
| 2026-05-03 22:41 | 51.15250 | -0.17239 | 211 ft | 0 kts | 94° |
| 2026-05-03 22:42 | 51.15249 | -0.17226 | 209 ft | 2 kts | 98° |
| 2026-05-03 22:42 | 51.15244 | -0.17200 | 217 ft | 3 kts | 110° |
| 2026-05-03 22:42 | 51.15234 | -0.17168 | 215 ft | 4 kts | 115° |
| 2026-05-03 22:42 | 51.15224 | -0.17129 | 215 ft | 4 kts | 108° |
| 2026-05-03 22:43 | 51.15220 | -0.17088 | 214 ft | 4 kts | 98° |
| 2026-05-03 22:43 | 51.15216 | -0.17044 | 218 ft | 4 kts | 94° |
| 2026-05-03 22:43 | 51.15217 | -0.16990 | 216 ft | 6 kts | 86° |
| 2026-05-03 22:43 | 51.15222 | -0.16901 | 211 ft | 9 kts | 85° |
| 2026-05-03 22:44 | 51.15219 | -0.16823 | 215 ft | 6 kts | 103° |
| 2026-05-03 22:44 | 51.15202 | -0.16774 | 215 ft | 7 kts | 127° |
| 2026-05-03 22:44 | 51.15158 | -0.16729 | 213 ft | 9 kts | 162° |
| 2026-05-03 22:44 | 51.15151 | -0.16727 | 212 ft | 0 kts | 166° |
| 2026-05-03 22:45 | 51.15056 | -0.17277 | 218 ft | 5 kts | 258° |
| 2026-05-03 22:45 | 51.15007 | -0.17615 | 216 ft | 59 kts | 257° |
| 2026-05-03 22:45 | 51.14878 | -0.18542 | 212 ft | 112 kts | 257° |
| 2026-05-03 22:46 | 51.14668 | -0.20001 | 218 ft | 157 kts | 257° |
| 2026-05-03 22:46 | 51.14445 | -0.21841 | 391 ft | 179 kts | 260° |
| 2026-05-03 22:46 | 51.14229 | -0.23846 | 824 ft | 190 kts | 259° |
| 2026-05-03 22:46 | 51.13979 | -0.25979 | 1316 ft | 201 kts | 259° |
| 2026-05-03 22:47 | 51.13690 | -0.28234 | 1660 ft | 216 kts | 258° |
| 2026-05-03 22:47 | 51.13347 | -0.30667 | 1934 ft | 234 kts | 256° |
| 2026-05-03 22:47 | 51.12945 | -0.33275 | 2283 ft | 249 kts | 255° |
| 2026-05-03 22:47 | 51.12520 | -0.36013 | 2788 ft | 259 kts | 256° |
| 2026-05-03 22:48 | 51.12102 | -0.38838 | 3376 ft | 265 kts | 256° |
| 2026-05-03 22:48 | 51.11682 | -0.41715 | 4000 ft | 269 kts | 255° |
| 2026-05-03 22:48 | 51.11028 | -0.44511 | 4646 ft | 272 kts | 244° |
| 2026-05-03 22:48 | 51.10193 | -0.47222 | 5300 ft | 274 kts | 242° |
| 2026-05-03 22:49 | 51.09335 | -0.49935 | 5985 ft | 275 kts | 242° |
| 2026-05-03 22:49 | 51.08487 | -0.52627 | 6619 ft | 277 kts | 242° |
| 2026-05-03 22:49 | 51.07623 | -0.55377 | 7227 ft | 279 kts | 242° |
| 2026-05-03 22:49 | 51.06755 | -0.58148 | 7845 ft | 281 kts | 242° |
| 2026-05-03 22:50 | 51.05912 | -0.60844 | 8423 ft | 283 kts | 243° |
| 2026-05-03 22:50 | 51.05218 | -0.63786 | 9009 ft | 286 kts | 255° |
| 2026-05-03 22:50 | 51.04773 | -0.66886 | 9603 ft | 289 kts | 257° |
| 2026-05-03 22:50 | 51.04361 | -0.70033 | 9939 ft | 292 kts | 257° |
| 2026-05-03 22:51 | 51.03947 | -0.73189 | 9952 ft | 292 kts | 257° |
| 2026-05-03 22:51 | 51.03528 | -0.76353 | 9943 ft | 293 kts | 257° |
| 2026-05-03 22:51 | 51.03110 | -0.79521 | 9941 ft | 293 kts | 256° |
| 2026-05-03 22:51 | 51.02685 | -0.82689 | 9941 ft | 293 kts | 256° |
| 2026-05-03 22:52 | 51.02256 | -0.85850 | 9942 ft | 293 kts | 256° |
| 2026-05-03 22:52 | 51.01824 | -0.89012 | 9942 ft | 293 kts | 256° |
| 2026-05-03 22:52 | 51.01397 | -0.92135 | 9940 ft | 293 kts | 256° |
| 2026-05-03 22:52 | 51.00969 | -0.95297 | 9946 ft | 293 kts | 256° |
| 2026-05-03 22:53 | 51.00535 | -0.98463 | 9943 ft | 293 kts | 256° |
| 2026-05-03 22:53 | 51.00105 | -1.01628 | 9956 ft | 294 kts | 256° |
| 2026-05-03 22:53 | 50.99669 | -1.04798 | 9957 ft | 294 kts | 256° |
| 2026-05-03 22:53 | 50.99231 | -1.07959 | 9982 ft | 294 kts | 256° |
| 2026-05-03 22:54 | 50.98787 | -1.11143 | 10127 ft | 299 kts | 256° |
| 2026-05-03 22:54 | 50.98327 | -1.14431 | 10329 ft | 312 kts | 256° |
| 2026-05-03 22:54 | 50.97847 | -1.17864 | 10567 ft | 325 kts | 256° |
| 2026-05-03 22:54 | 50.97350 | -1.21426 | 10793 ft | 337 kts | 256° |
| 2026-05-03 22:55 | 50.96833 | -1.25123 | 11017 ft | 349 kts | 256° |
| 2026-05-03 22:55 | 50.96306 | -1.28902 | 11267 ft | 359 kts | 256° |
| 2026-05-03 22:55 | 50.95760 | -1.32804 | 11674 ft | 365 kts | 256° |
| 2026-05-03 22:55 | 50.95219 | -1.36704 | 12126 ft | 369 kts | 256° |
| 2026-05-03 22:56 | 50.94697 | -1.40703 | 12601 ft | 372 kts | 257° |
| 2026-05-03 22:56 | 50.94188 | -1.44751 | 13071 ft | 377 kts | 257° |
| 2026-05-03 22:56 | 50.93680 | -1.48840 | 13563 ft | 380 kts | 257° |
| 2026-05-03 22:56 | 50.93165 | -1.52959 | 14048 ft | 382 kts | 257° |
| 2026-05-03 22:57 | 50.92651 | -1.57037 | 14529 ft | 384 kts | 257° |
| 2026-05-03 22:57 | 50.92185 | -1.60689 | 14954 ft | 385 kts | 256° |
| 2026-05-03 22:57 | 50.91621 | -1.65084 | 15479 ft | 387 kts | 256° |
| 2026-05-03 22:57 | 50.91079 | -1.69274 | 15947 ft | 389 kts | 256° |
| 2026-05-03 22:58 | 50.90540 | -1.73429 | 16402 ft | 391 kts | 256° |
| 2026-05-03 22:58 | 50.89989 | -1.77656 | 16868 ft | 393 kts | 256° |
| 2026-05-03 22:58 | 50.89434 | -1.81909 | 17345 ft | 395 kts | 256° |
| 2026-05-03 22:58 | 50.88874 | -1.86184 | 17807 ft | 398 kts | 256° |
| 2026-05-03 22:59 | 50.88309 | -1.90485 | 18244 ft | 400 kts | 256° |
| 2026-05-03 22:59 | 50.87738 | -1.94813 | 18612 ft | 403 kts | 256° |
| 2026-05-03 22:59 | 50.87162 | -1.99170 | 19023 ft | 405 kts | 256° |
| 2026-05-03 22:59 | 50.86587 | -2.03541 | 19438 ft | 407 kts | 256° |
| 2026-05-03 23:00 | 50.86025 | -2.07785 | 19848 ft | 408 kts | 256° |
| 2026-05-03 23:00 | 50.85418 | -2.12324 | 20278 ft | 409 kts | 255° |
| 2026-05-03 23:00 | 50.84824 | -2.16744 | 20654 ft | 412 kts | 255° |
| 2026-05-03 23:00 | 50.84235 | -2.21120 | 21032 ft | 413 kts | 255° |
| 2026-05-03 23:01 | 50.83634 | -2.25582 | 21411 ft | 415 kts | 255° |
| 2026-05-03 23:01 | 50.83029 | -2.30055 | 21789 ft | 417 kts | 255° |
| 2026-05-03 23:01 | 50.82420 | -2.34555 | 22172 ft | 419 kts | 255° |
| 2026-05-03 23:01 | 50.81843 | -2.38798 | 22465 ft | 422 kts | 255° |
| 2026-05-03 23:02 | 50.81222 | -2.43354 | 22823 ft | 425 kts | 255° |
| 2026-05-03 23:02 | 50.80622 | -2.47934 | 23162 ft | 428 kts | 257° |
| 2026-05-03 23:02 | 50.80306 | -2.52631 | 23496 ft | 433 kts | 265° |
| 2026-05-03 23:02 | 50.80432 | -2.57378 | 23765 ft | 439 kts | 274° |
| 2026-05-03 23:03 | 50.80998 | -2.62139 | 24044 ft | 443 kts | 279° |
| 2026-05-03 23:03 | 50.81730 | -2.66820 | 24326 ft | 445 kts | 281° |
| 2026-05-03 23:03 | 50.82552 | -2.71548 | 24594 ft | 448 kts | 282° |
| 2026-05-03 23:03 | 50.83411 | -2.76299 | 24854 ft | 450 kts | 283° |
| 2026-05-03 23:04 | 50.84257 | -2.80963 | 25109 ft | 451 kts | 282° |
| 2026-05-03 23:04 | 50.85114 | -2.85742 | 25414 ft | 452 kts | 282° |
| 2026-05-03 23:04 | 50.85963 | -2.90548 | 25676 ft | 454 kts | 282° |
| 2026-05-03 23:04 | 50.86803 | -2.95368 | 25919 ft | 456 kts | 282° |
| 2026-05-03 23:05 | 50.87639 | -3.00218 | 26160 ft | 457 kts | 282° |
| 2026-05-03 23:05 | 50.88460 | -3.05012 | 26389 ft | 459 kts | 282° |
| 2026-05-03 23:05 | 50.89295 | -3.09905 | 26628 ft | 461 kts | 282° |
| 2026-05-03 23:05 | 50.90131 | -3.14812 | 26849 ft | 463 kts | 282° |
| 2026-05-03 23:06 | 50.90957 | -3.19675 | 27091 ft | 464 kts | 282° |
| 2026-05-03 23:06 | 50.91791 | -3.24589 | 27298 ft | 466 kts | 282° |
| 2026-05-03 23:06 | 50.92632 | -3.29569 | 27537 ft | 468 kts | 282° |
| 2026-05-03 23:06 | 50.93476 | -3.34573 | 27685 ft | 471 kts | 282° |
| 2026-05-03 23:07 | 50.94321 | -3.39600 | 27877 ft | 473 kts | 282° |
| 2026-05-03 23:07 | 50.95159 | -3.44597 | 28079 ft | 475 kts | 282° |
| 2026-05-03 23:07 | 50.96002 | -3.49632 | 28520 ft | 471 kts | 282° |
| 2026-05-03 23:07 | 50.96829 | -3.54577 | 29206 ft | 462 kts | 282° |
| 2026-05-03 23:08 | 50.97642 | -3.59453 | 29891 ft | 453 kts | 282° |
| 2026-05-03 23:08 | 50.98427 | -3.64177 | 30386 ft | 446 kts | 282° |
| 2026-05-03 23:08 | 50.99208 | -3.68897 | 30874 ft | 438 kts | 282° |
| 2026-05-03 23:08 | 50.99960 | -3.73457 | 31322 ft | 431 kts | 282° |
| 2026-05-03 23:09 | 51.00710 | -3.78028 | 31769 ft | 425 kts | 282° |
| 2026-05-03 23:09 | 51.01453 | -3.82562 | 31939 ft | 425 kts | 282° |
| 2026-05-03 23:09 | 51.02198 | -3.87129 | 31948 ft | 429 kts | 282° |
| 2026-05-03 23:10 | 51.03702 | -3.96397 | 31952 ft | 437 kts | 282° |
| 2026-05-03 23:10 | 51.05296 | -4.05754 | 31944 ft | 447 kts | 287° |
| 2026-05-03 23:11 | 51.08252 | -4.14552 | 31948 ft | 459 kts | 306° |
| 2026-05-03 23:11 | 51.12382 | -4.22446 | 31940 ft | 469 kts | 309° |
| 2026-05-03 23:12 | 51.16770 | -4.30253 | 31928 ft | 475 kts | 310° |
| 2026-05-03 23:12 | 51.21130 | -4.38008 | 31951 ft | 474 kts | 310° |
| 2026-05-03 23:13 | 51.25484 | -4.45854 | 31934 ft | 474 kts | 310° |
| 2026-05-03 23:13 | 51.29829 | -4.53751 | 31932 ft | 473 kts | 310° |
| 2026-05-03 23:14 | 51.34167 | -4.61666 | 31935 ft | 473 kts | 310° |
| 2026-05-03 23:14 | 51.38499 | -4.69593 | 31934 ft | 473 kts | 309° |
| 2026-05-03 23:15 | 51.42799 | -4.77480 | 31950 ft | 473 kts | 309° |
| 2026-05-03 23:15 | 51.47118 | -4.85429 | 31938 ft | 473 kts | 310° |
| 2026-05-03 23:16 | 51.51434 | -4.93396 | 31941 ft | 473 kts | 310° |
| 2026-05-03 23:16 | 51.55748 | -5.01385 | 31942 ft | 473 kts | 310° |
| 2026-05-03 23:17 | 51.60026 | -5.09332 | 31945 ft | 473 kts | 310° |
| 2026-05-03 23:17 | 51.64326 | -5.17344 | 31945 ft | 473 kts | 310° |
| 2026-05-03 23:18 | 51.68621 | -5.25374 | 31941 ft | 473 kts | 310° |
| 2026-05-03 23:18 | 51.72905 | -5.33408 | 31934 ft | 472 kts | 310° |
| 2026-05-03 23:19 | 51.77151 | -5.41395 | 31954 ft | 472 kts | 310° |
| 2026-05-03 23:19 | 51.81423 | -5.49458 | 31943 ft | 472 kts | 310° |
| 2026-05-03 23:20 | 51.85690 | -5.57535 | 31959 ft | 472 kts | 310° |
| 2026-05-03 23:20 | 51.89950 | -5.65625 | 31946 ft | 472 kts | 310° |
| 2026-05-03 23:21 | 51.94211 | -5.73745 | 31961 ft | 473 kts | 310° |
| 2026-05-03 23:21 | 51.98437 | -5.81823 | 31957 ft | 472 kts | 310° |
| 2026-05-03 23:22 | 52.04812 | -5.94060 | 31976 ft | 472 kts | 311° |
| 2026-05-03 23:22 | 52.09042 | -6.02209 | 31956 ft | 472 kts | 311° |
| 2026-05-03 23:23 | 52.13270 | -6.10379 | 31963 ft | 472 kts | 312° |
| 2026-05-03 23:23 | 52.17453 | -6.18494 | 31961 ft | 468 kts | 312° |
| 2026-05-03 23:24 | 52.21634 | -6.26625 | 31975 ft | 468 kts | 311° |
| 2026-05-03 23:24 | 52.25809 | -6.34775 | 31975 ft | 469 kts | 312° |
| 2026-05-03 23:25 | 52.29984 | -6.42952 | 31982 ft | 468 kts | 311° |
| 2026-05-03 23:25 | 52.34143 | -6.51119 | 31985 ft | 466 kts | 311° |
| 2026-05-03 23:26 | 52.38251 | -6.59219 | 31984 ft | 465 kts | 312° |
| 2026-05-03 23:26 | 52.42378 | -6.67382 | 31991 ft | 465 kts | 312° |
| 2026-05-03 23:27 | 52.46496 | -6.75550 | 31984 ft | 465 kts | 312° |
| 2026-05-03 23:27 | 52.50615 | -6.83746 | 31994 ft | 465 kts | 311° |
| 2026-05-03 23:28 | 52.54700 | -6.91902 | 31999 ft | 465 kts | 311° |
| 2026-05-03 23:28 | 52.58682 | -6.99880 | 31995 ft | 465 kts | 312° |
| 2026-05-03 23:29 | 52.62701 | -7.07957 | 31996 ft | 464 kts | 313° |
| 2026-05-03 23:29 | 52.66678 | -7.15969 | 31996 ft | 464 kts | 313° |
| 2026-05-03 23:30 | 52.70722 | -7.24144 | 31998 ft | 464 kts | 313° |
| 2026-05-03 23:30 | 52.74797 | -7.32412 | 32007 ft | 464 kts | 313° |
| 2026-05-03 23:31 | 52.78862 | -7.40689 | 31999 ft | 464 kts | 314° |
| 2026-05-03 23:31 | 52.82907 | -7.48949 | 32007 ft | 464 kts | 313° |
| 2026-05-03 23:32 | 52.86965 | -7.57261 | 32010 ft | 465 kts | 313° |
| 2026-05-03 23:32 | 52.90991 | -7.65538 | 32015 ft | 465 kts | 314° |
| 2026-05-03 23:33 | 52.95002 | -7.73811 | 32012 ft | 465 kts | 314° |
| 2026-05-03 23:33 | 52.99039 | -7.82165 | 32013 ft | 465 kts | 314° |
| 2026-05-03 23:34 | 53.03076 | -7.90547 | 32017 ft | 464 kts | 315° |
| 2026-05-03 23:34 | 53.07068 | -7.98863 | 32020 ft | 464 kts | 315° |
| 2026-05-03 23:35 | 53.11084 | -8.07255 | 32025 ft | 464 kts | 314° |
| 2026-05-03 23:35 | 53.15096 | -8.15667 | 32027 ft | 464 kts | 314° |
| 2026-05-03 23:36 | 53.19092 | -8.24076 | 32025 ft | 464 kts | 315° |
| 2026-05-03 23:36 | 53.23059 | -8.32452 | 32028 ft | 463 kts | 315° |
| 2026-05-03 23:37 | 53.27030 | -8.40861 | 32025 ft | 463 kts | 314° |
| 2026-05-03 23:37 | 53.31002 | -8.49301 | 32029 ft | 463 kts | 314° |
| 2026-05-03 23:38 | 53.34982 | -8.57788 | 32031 ft | 463 kts | 314° |
| 2026-05-03 23:38 | 53.38900 | -8.66171 | 32031 ft | 464 kts | 314° |
| 2026-05-03 23:39 | 53.42879 | -8.74712 | 32009 ft | 463 kts | 314° |
| 2026-05-03 23:39 | 53.46820 | -8.83205 | 32037 ft | 461 kts | 314° |
| 2026-05-03 23:40 | 53.50739 | -8.91677 | 32035 ft | 461 kts | 314° |
| 2026-05-03 23:40 | 53.54567 | -8.99975 | 32039 ft | 461 kts | 314° |
| 2026-05-03 23:41 | 53.58466 | -9.08457 | 32045 ft | 461 kts | 314° |
| 2026-05-03 23:41 | 53.62362 | -9.16965 | 32054 ft | 461 kts | 314° |
| 2026-05-03 23:42 | 53.66231 | -9.25440 | 32052 ft | 460 kts | 314° |
| 2026-05-03 23:42 | 53.70115 | -9.33981 | 32062 ft | 458 kts | 314° |
| 2026-05-03 23:43 | 53.73931 | -9.42396 | 32047 ft | 458 kts | 314° |
| 2026-05-03 23:43 | 53.77794 | -9.50944 | 32072 ft | 458 kts | 314° |
| 2026-05-03 23:44 | 53.81652 | -9.59511 | 32073 ft | 458 kts | 313° |
| 2026-05-03 23:44 | 53.85481 | -9.68042 | 32072 ft | 458 kts | 313° |
| 2026-05-03 23:45 | 53.89285 | -9.76551 | 32073 ft | 455 kts | 313° |
| 2026-05-03 23:45 | 53.93097 | -9.85105 | 32079 ft | 454 kts | 313° |
| 2026-05-03 23:46 | 53.96903 | -9.93669 | 32090 ft | 454 kts | 313° |
| 2026-05-03 23:46 | 54.00700 | -10.02246 | 32088 ft | 454 kts | 313° |
| 2026-05-03 23:47 | 54.04494 | -10.10844 | 32093 ft | 455 kts | 313° |
| 2026-05-03 23:47 | 54.08258 | -10.19404 | 32102 ft | 455 kts | 312° |
| 2026-05-03 23:48 | 54.12031 | -10.28018 | 32101 ft | 452 kts | 312° |
| 2026-05-03 23:48 | 54.15787 | -10.36622 | 32092 ft | 452 kts | 312° |
| 2026-05-03 23:49 | 54.19538 | -10.45242 | 32089 ft | 452 kts | 312° |
| 2026-05-03 23:49 | 54.23262 | -10.53829 | 32113 ft | 452 kts | 312° |
| 2026-05-03 23:50 | 54.26396 | -10.61077 | 32106 ft | 452 kts | 312° |
| 2026-05-03 23:50 | 54.30733 | -10.71145 | 32104 ft | 452 kts | 311° |
| 2026-05-03 23:51 | 54.34462 | -10.79833 | 32119 ft | 453 kts | 311° |
| 2026-05-03 23:51 | 54.38186 | -10.88543 | 32122 ft | 453 kts | 311° |
| 2026-05-03 23:52 | 54.41879 | -10.97208 | 32119 ft | 453 kts | 311° |
| 2026-05-03 23:52 | 54.45590 | -11.05946 | 32127 ft | 453 kts | 311° |
| 2026-05-03 23:53 | 54.49298 | -11.14706 | 32127 ft | 453 kts | 311° |
| 2026-05-03 23:53 | 54.52994 | -11.23470 | 32127 ft | 451 kts | 311° |
| 2026-05-03 23:54 | 54.56646 | -11.32162 | 32130 ft | 451 kts | 310° |
| 2026-05-03 23:54 | 54.60320 | -11.40933 | 32133 ft | 451 kts | 310° |
| 2026-05-03 23:55 | 54.63987 | -11.49720 | 32138 ft | 451 kts | 310° |
| 2026-05-03 23:55 | 54.67648 | -11.58523 | 32138 ft | 451 kts | 310° |
| 2026-05-03 23:56 | 54.71278 | -11.67282 | 32133 ft | 451 kts | 310° |
| 2026-05-03 23:56 | 54.74920 | -11.76104 | 32140 ft | 450 kts | 310° |
| 2026-05-03 23:57 | 54.78545 | -11.84918 | 32140 ft | 449 kts | 310° |
| 2026-05-03 23:57 | 54.82164 | -11.93744 | 32140 ft | 449 kts | 310° |
| 2026-05-03 23:58 | 54.85754 | -12.02532 | 32140 ft | 450 kts | 310° |
| 2026-05-03 23:58 | 54.89370 | -12.11413 | 32143 ft | 450 kts | 309° |
| 2026-05-03 23:59 | 54.92976 | -12.20303 | 32143 ft | 449 kts | 309° |
| 2026-05-03 23:59 | 54.96561 | -12.29180 | 32143 ft | 448 kts | 309° |
| 2026-05-04 00:00 | 55.00136 | -12.38054 | 32152 ft | 448 kts | 309° |
| 2026-05-04 00:00 | 55.03679 | -12.46885 | 32152 ft | 448 kts | 309° |
| 2026-05-04 00:01 | 55.07240 | -12.55794 | 32149 ft | 448 kts | 309° |
| 2026-05-04 00:01 | 55.10796 | -12.64720 | 32152 ft | 448 kts | 309° |
| 2026-05-04 00:02 | 55.14344 | -12.73658 | 32143 ft | 447 kts | 308° |
| 2026-05-04 00:02 | 55.17859 | -12.82545 | 32152 ft | 447 kts | 308° |
| 2026-05-04 00:03 | 55.21393 | -12.91514 | 32155 ft | 447 kts | 308° |
| 2026-05-04 00:03 | 55.24917 | -13.00491 | 32155 ft | 447 kts | 308° |
| 2026-05-04 00:04 | 55.28435 | -13.09482 | 32154 ft | 447 kts | 308° |
| 2026-05-04 00:04 | 55.31928 | -13.18443 | 32157 ft | 447 kts | 308° |
| 2026-05-04 00:05 | 55.35431 | -13.27465 | 32157 ft | 447 kts | 308° |
| 2026-05-04 00:05 | 55.38935 | -13.36520 | 32154 ft | 448 kts | 308° |
| 2026-05-04 00:06 | 55.42432 | -13.45589 | 32162 ft | 448 kts | 307° |
| 2026-05-04 00:06 | 55.45908 | -13.54639 | 32156 ft | 449 kts | 307° |
| 2026-05-04 00:07 | 55.49405 | -13.63781 | 32161 ft | 450 kts | 307° |
| 2026-05-04 00:07 | 55.52896 | -13.72938 | 32153 ft | 450 kts | 307° |
| 2026-05-04 00:08 | 55.56373 | -13.82096 | 32140 ft | 448 kts | 307° |
| 2026-05-04 00:08 | 55.59808 | -13.91174 | 32140 ft | 447 kts | 307° |
| 2026-05-04 00:09 | 55.63255 | -14.00317 | 32156 ft | 447 kts | 307° |
| 2026-05-04 00:09 | 55.66701 | -14.09489 | 32154 ft | 447 kts | 307° |
| 2026-05-04 00:10 | 55.70143 | -14.18684 | 32148 ft | 448 kts | 306° |
| 2026-05-04 00:10 | 55.73587 | -14.27922 | 32153 ft | 449 kts | 306° |
| 2026-05-04 00:11 | 55.76998 | -14.37110 | 32156 ft | 448 kts | 306° |
| 2026-05-04 00:11 | 55.80417 | -14.46351 | 32146 ft | 447 kts | 306° |
| 2026-05-04 00:12 | 55.83826 | -14.55600 | 32151 ft | 447 kts | 306° |
| 2026-05-04 00:12 | 55.87232 | -14.64874 | 32146 ft | 447 kts | 306° |
| 2026-05-04 00:13 | 55.90607 | -14.74099 | 32149 ft | 447 kts | 306° |
| 2026-05-04 00:13 | 55.93997 | -14.83401 | 32148 ft | 447 kts | 306° |
| 2026-05-04 00:14 | 55.97379 | -14.92717 | 32208 ft | 446 kts | 305° |
| 2026-05-04 00:14 | 56.00469 | -15.02399 | 32351 ft | 454 kts | 296° |
| 2026-05-04 00:15 | 56.01727 | -15.07588 | 32462 ft | 456 kts | 295° |
| 2026-05-04 00:15 | 56.02938 | -15.12831 | 32612 ft | 457 kts | 294° |
| 2026-05-04 00:15 | 56.04107 | -15.18035 | 32791 ft | 457 kts | 294° |
| 2026-05-04 00:15 | 56.05277 | -15.23315 | 32971 ft | 457 kts | 294° |
| 2026-05-04 00:16 | 56.06442 | -15.28593 | 33155 ft | 456 kts | 294° |
| 2026-05-04 00:16 | 56.07607 | -15.33878 | 33340 ft | 456 kts | 294° |
| 2026-05-04 00:16 | 56.08772 | -15.39154 | 33514 ft | 455 kts | 294° |
| 2026-05-04 00:16 | 56.09937 | -15.44428 | 33701 ft | 455 kts | 294° |
| 2026-05-04 00:17 | 56.11099 | -15.49695 | 33846 ft | 455 kts | 294° |
| 2026-05-04 00:17 | 56.11869 | -15.53188 | 33963 ft | 455 kts | 294° |
| 2026-05-04 00:17 | 56.13404 | -15.60166 | 34126 ft | 454 kts | 294° |
| 2026-05-04 00:17 | 56.14550 | -15.65397 | 34142 ft | 446 kts | 294° |
| 2026-05-04 00:18 | 56.16785 | -15.75643 | 34146 ft | 439 kts | 294° |
| 2026-05-04 00:18 | 56.19006 | -15.85860 | 34146 ft | 439 kts | 294° |
| 2026-05-04 00:19 | 56.20844 | -15.94354 | 34149 ft | 439 kts | 294° |
| 2026-05-04 00:19 | 56.23405 | -16.06248 | 34143 ft | 439 kts | 293° |
| 2026-05-04 00:20 | 56.25600 | -16.16503 | 34143 ft | 439 kts | 293° |
| 2026-05-04 00:20 | 56.27417 | -16.25033 | 34137 ft | 439 kts | 293° |
| 2026-05-04 00:21 | 56.29596 | -16.35309 | 34149 ft | 439 kts | 293° |
| 2026-05-04 00:21 | 56.31763 | -16.45575 | 34143 ft | 438 kts | 292° |
| 2026-05-04 00:22 | 56.33915 | -16.55826 | 34149 ft | 437 kts | 292° |
| 2026-05-04 00:22 | 56.36044 | -16.66018 | 34149 ft | 437 kts | 292° |
| 2026-05-04 00:23 | 56.38179 | -16.76289 | 34143 ft | 437 kts | 292° |
| 2026-05-04 00:23 | 56.40305 | -16.86575 | 34152 ft | 437 kts | 292° |
| 2026-05-04 00:24 | 56.42423 | -16.96865 | 34152 ft | 437 kts | 292° |
| 2026-05-04 00:24 | 56.44528 | -17.07152 | 34153 ft | 436 kts | 291° |
| 2026-05-04 00:25 | 56.46607 | -17.17368 | 34159 ft | 435 kts | 291° |
| 2026-05-04 00:25 | 56.48687 | -17.27634 | 34152 ft | 434 kts | 291° |
| 2026-05-04 00:26 | 56.50755 | -17.37894 | 34153 ft | 434 kts | 291° |
| 2026-05-04 00:26 | 56.52814 | -17.48170 | 34152 ft | 434 kts | 291° |
| 2026-05-04 00:27 | 56.54854 | -17.58394 | 34152 ft | 435 kts | 291° |
| 2026-05-04 00:27 | 56.56900 | -17.68704 | 34149 ft | 434 kts | 290° |
| 2026-05-04 00:28 | 56.58937 | -17.79025 | 34155 ft | 435 kts | 290° |
| 2026-05-04 00:28 | 56.60965 | -17.89359 | 34154 ft | 434 kts | 290° |
| 2026-05-04 00:29 | 56.62979 | -17.99671 | 34153 ft | 434 kts | 290° |
| 2026-05-04 00:29 | 56.64973 | -18.09936 | 34149 ft | 434 kts | 289° |
| 2026-05-04 00:30 | 56.66971 | -18.20282 | 34155 ft | 434 kts | 289° |
| 2026-05-04 00:30 | 56.68962 | -18.30644 | 34149 ft | 434 kts | 289° |
| 2026-05-04 00:31 | 56.70945 | -18.41016 | 34147 ft | 434 kts | 289° |
| 2026-05-04 00:31 | 56.72905 | -18.51324 | 34154 ft | 434 kts | 289° |
| 2026-05-04 00:32 | 56.74869 | -18.61710 | 34154 ft | 433 kts | 289° |
| 2026-05-04 00:32 | 56.76823 | -18.72102 | 34149 ft | 434 kts | 289° |
| 2026-05-04 00:33 | 56.79727 | -18.87643 | 34154 ft | 433 kts | 288° |
| 2026-05-04 00:34 | 56.81657 | -18.98051 | 34146 ft | 433 kts | 288° |
| 2026-05-04 00:34 | 56.83580 | -19.08470 | 34153 ft | 433 kts | 288° |
| 2026-05-04 00:35 | 56.85497 | -19.18919 | 34151 ft | 434 kts | 288° |
| 2026-05-04 00:35 | 56.87405 | -19.29382 | 34150 ft | 434 kts | 288° |
| 2026-05-04 00:36 | 56.89293 | -19.39790 | 34157 ft | 434 kts | 287° |
| 2026-05-04 00:36 | 56.91187 | -19.50287 | 34153 ft | 435 kts | 287° |
| 2026-05-04 00:37 | 56.93075 | -19.60810 | 34155 ft | 435 kts | 287° |
| 2026-05-04 00:37 | 56.94951 | -19.71328 | 34154 ft | 434 kts | 287° |
| 2026-05-04 00:38 | 56.96818 | -19.81850 | 34155 ft | 434 kts | 286° |
| 2026-05-04 00:38 | 56.98665 | -19.92331 | 34160 ft | 435 kts | 286° |
| 2026-05-04 00:39 | 57.00046 | -20.03100 | 34159 ft | 433 kts | 275° |
| 2026-05-04 00:39 | 57.00602 | -20.14108 | 34158 ft | 434 kts | 273° |
| 2026-05-04 00:40 | 57.01016 | -20.25143 | 34163 ft | 433 kts | 273° |
| 2026-05-04 00:40 | 57.01404 | -20.36104 | 34162 ft | 434 kts | 273° |
| 2026-05-04 00:41 | 57.01799 | -20.47147 | 34160 ft | 434 kts | 272° |
| 2026-05-04 00:41 | 57.02193 | -20.58189 | 34162 ft | 434 kts | 272° |
| 2026-05-04 00:42 | 57.02580 | -20.69251 | 34164 ft | 434 kts | 272° |
| 2026-05-04 00:42 | 57.02954 | -20.80236 | 34164 ft | 434 kts | 272° |
| 2026-05-04 00:43 | 57.03320 | -20.91291 | 34169 ft | 434 kts | 272° |
| 2026-05-04 00:43 | 57.03676 | -21.02356 | 34170 ft | 434 kts | 272° |
| 2026-05-04 00:44 | 57.04021 | -21.13410 | 34171 ft | 434 kts | 272° |
| 2026-05-04 00:44 | 57.04358 | -21.24479 | 34173 ft | 434 kts | 272° |
| 2026-05-04 00:45 | 57.04683 | -21.35464 | 34172 ft | 433 kts | 272° |
| 2026-05-04 00:45 | 57.04999 | -21.46514 | 34172 ft | 433 kts | 272° |
| 2026-05-04 00:46 | 57.05307 | -21.57583 | 34182 ft | 434 kts | 272° |
| 2026-05-04 00:46 | 57.05603 | -21.68632 | 34183 ft | 433 kts | 272° |
| 2026-05-04 00:47 | 57.05888 | -21.79626 | 34183 ft | 434 kts | 272° |
| 2026-05-04 00:47 | 57.06166 | -21.90688 | 34184 ft | 433 kts | 272° |
| 2026-05-04 00:48 | 57.06434 | -22.01731 | 34192 ft | 433 kts | 272° |
| 2026-05-04 00:48 | 57.06693 | -22.12811 | 34197 ft | 434 kts | 272° |
| 2026-05-04 00:49 | 57.06941 | -22.23881 | 34189 ft | 436 kts | 272° |
| 2026-05-04 00:49 | 57.07181 | -22.35013 | 34197 ft | 442 kts | 272° |
| 2026-05-04 00:50 | 57.07417 | -22.46394 | 34195 ft | 448 kts | 272° |
| 2026-05-04 00:50 | 57.07642 | -22.57820 | 34198 ft | 447 kts | 272° |
| 2026-05-04 00:51 | 57.07857 | -22.69231 | 34199 ft | 446 kts | 272° |
| 2026-05-04 00:51 | 57.08060 | -22.80549 | 34198 ft | 446 kts | 272° |
| 2026-05-04 00:52 | 57.08254 | -22.91957 | 34202 ft | 447 kts | 271° |
| 2026-05-04 00:52 | 57.08438 | -23.03364 | 34202 ft | 446 kts | 271° |
| 2026-05-04 00:53 | 57.08612 | -23.14786 | 34207 ft | 448 kts | 271° |
| 2026-05-04 00:53 | 57.08775 | -23.26207 | 34202 ft | 446 kts | 271° |
| 2026-05-04 00:54 | 57.08927 | -23.37544 | 34208 ft | 447 kts | 271° |
| 2026-05-04 00:54 | 57.09069 | -23.48968 | 34209 ft | 446 kts | 271° |
| 2026-05-04 00:55 | 57.09201 | -23.60370 | 34216 ft | 447 kts | 271° |
| 2026-05-04 00:55 | 57.09323 | -23.71794 | 34210 ft | 446 kts | 270° |
| 2026-05-04 00:56 | 57.09434 | -23.83140 | 34220 ft | 447 kts | 270° |
| 2026-05-04 00:56 | 57.09535 | -23.94595 | 34220 ft | 448 kts | 270° |
| 2026-05-04 00:57 | 57.09626 | -24.06026 | 34221 ft | 447 kts | 270° |
| 2026-05-04 00:57 | 57.09706 | -24.17472 | 34221 ft | 448 kts | 270° |
| 2026-05-04 00:58 | 57.09776 | -24.28831 | 34222 ft | 447 kts | 270° |
| 2026-05-04 00:58 | 57.09835 | -24.40274 | 34224 ft | 449 kts | 270° |
| 2026-05-04 00:59 | 57.09885 | -24.51750 | 34225 ft | 448 kts | 270° |
| 2026-05-04 00:59 | 57.09923 | -24.63224 | 34225 ft | 450 kts | 269° |
| 2026-05-04 01:00 | 57.09952 | -24.74717 | 34224 ft | 448 kts | 269° |
| 2026-05-04 01:00 | 57.09970 | -24.86096 | 34228 ft | 448 kts | 269° |
| 2026-05-04 01:01 | 57.09977 | -24.97583 | 34236 ft | 448 kts | 269° |
| 2026-05-04 01:01 | 57.09974 | -25.09025 | 34224 ft | 448 kts | 269° |
| 2026-05-04 01:02 | 57.09960 | -25.20498 | 34236 ft | 448 kts | 269° |
| 2026-05-04 01:02 | 57.09937 | -25.31869 | 34231 ft | 447 kts | 269° |
| 2026-05-04 01:03 | 57.09902 | -25.43339 | 34238 ft | 449 kts | 269° |
| 2026-05-04 01:03 | 57.09857 | -25.54793 | 34239 ft | 447 kts | 269° |
| 2026-05-04 01:04 | 57.09802 | -25.66257 | 34233 ft | 449 kts | 269° |
| 2026-05-04 01:04 | 57.09737 | -25.77632 | 34237 ft | 448 kts | 269° |
| 2026-05-04 01:05 | 57.09661 | -25.89115 | 34244 ft | 450 kts | 269° |
| 2026-05-04 01:05 | 57.09574 | -26.00604 | 34242 ft | 448 kts | 269° |
| 2026-05-04 01:06 | 57.09477 | -26.12085 | 34246 ft | 451 kts | 268° |
| 2026-05-04 01:06 | 57.09369 | -26.23582 | 34245 ft | 448 kts | 268° |
| 2026-05-04 01:07 | 57.09252 | -26.34980 | 34257 ft | 450 kts | 269° |
| 2026-05-04 01:07 | 57.09123 | -26.46473 | 34246 ft | 448 kts | 269° |
| 2026-05-04 01:08 | 57.08984 | -26.57933 | 34250 ft | 450 kts | 268° |
| 2026-05-04 01:08 | 57.08834 | -26.69420 | 34252 ft | 448 kts | 268° |
| 2026-05-04 01:09 | 57.08675 | -26.80797 | 34253 ft | 449 kts | 268° |
| 2026-05-04 01:09 | 57.08505 | -26.92289 | 34250 ft | 449 kts | 268° |
| 2026-05-04 01:10 | 57.08324 | -27.03749 | 34256 ft | 449 kts | 268° |
| 2026-05-04 01:10 | 57.08132 | -27.15229 | 34261 ft | 448 kts | 268° |
| 2026-05-04 01:11 | 57.07932 | -27.26595 | 34263 ft | 449 kts | 268° |
| 2026-05-04 01:11 | 57.07720 | -27.38070 | 34262 ft | 448 kts | 268° |
| 2026-05-04 01:12 | 57.07497 | -27.49511 | 34265 ft | 449 kts | 268° |
| 2026-05-04 01:12 | 57.07264 | -27.60991 | 34253 ft | 448 kts | 268° |
| 2026-05-04 01:13 | 57.07023 | -27.72352 | 34274 ft | 448 kts | 268° |
| 2026-05-04 01:13 | 57.06769 | -27.83796 | 34268 ft | 447 kts | 268° |
| 2026-05-04 01:14 | 57.06505 | -27.95211 | 34269 ft | 448 kts | 268° |
| 2026-05-04 01:14 | 57.06231 | -28.06647 | 34272 ft | 447 kts | 268° |
| 2026-05-04 01:15 | 57.05947 | -28.18056 | 34272 ft | 448 kts | 267° |
| 2026-05-04 01:15 | 57.05654 | -28.29414 | 34271 ft | 447 kts | 267° |
| 2026-05-04 01:16 | 57.05349 | -28.40817 | 34271 ft | 447 kts | 267° |
| 2026-05-04 01:16 | 57.05034 | -28.52229 | 34277 ft | 447 kts | 267° |
| 2026-05-04 01:17 | 57.04708 | -28.63620 | 34278 ft | 447 kts | 267° |
| 2026-05-04 01:17 | 57.04375 | -28.74949 | 34279 ft | 447 kts | 267° |
| 2026-05-04 01:18 | 57.04029 | -28.86340 | 34281 ft | 448 kts | 267° |
| 2026-05-04 01:18 | 57.03672 | -28.97745 | 34277 ft | 447 kts | 267° |
| 2026-05-04 01:19 | 57.03305 | -29.09133 | 34281 ft | 447 kts | 267° |
| 2026-05-04 01:19 | 57.02928 | -29.20518 | 34280 ft | 446 kts | 266° |
| 2026-05-04 01:20 | 57.02544 | -29.31812 | 34291 ft | 447 kts | 266° |
| 2026-05-04 01:20 | 57.02146 | -29.43184 | 34284 ft | 446 kts | 266° |
| 2026-05-04 01:21 | 57.01739 | -29.54542 | 34286 ft | 447 kts | 266° |
| 2026-05-04 01:21 | 57.01321 | -29.65924 | 34289 ft | 447 kts | 266° |
| 2026-05-04 01:22 | 57.00895 | -29.77226 | 34292 ft | 448 kts | 266° |
| 2026-05-04 01:22 | 57.00456 | -29.88611 | 34293 ft | 447 kts | 266° |
| 2026-05-04 01:23 | 57.00118 | -29.99996 | 34289 ft | 447 kts | 271° |
| 2026-05-04 01:23 | 57.00436 | -30.11379 | 34291 ft | 447 kts | 274° |
| 2026-05-04 01:24 | 57.00872 | -30.22761 | 34285 ft | 448 kts | 274° |
| 2026-05-04 01:24 | 57.01317 | -30.34112 | 34294 ft | 450 kts | 273° |
| 2026-05-04 01:25 | 57.01746 | -30.45548 | 34290 ft | 449 kts | 273° |
| 2026-05-04 01:25 | 57.02157 | -30.57006 | 34289 ft | 450 kts | 273° |
| 2026-05-04 01:26 | 57.02556 | -30.68442 | 34295 ft | 448 kts | 273° |
| 2026-05-04 01:26 | 57.02941 | -30.79810 | 34290 ft | 450 kts | 273° |
| 2026-05-04 01:27 | 57.03320 | -30.91262 | 34299 ft | 449 kts | 273° |
| 2026-05-04 01:27 | 57.03688 | -31.02719 | 34297 ft | 452 kts | 272° |
| 2026-05-04 01:28 | 57.04050 | -31.14300 | 34297 ft | 455 kts | 272° |
| 2026-05-04 01:28 | 57.04401 | -31.25876 | 34296 ft | 453 kts | 272° |
| 2026-05-04 01:29 | 57.04740 | -31.37384 | 34297 ft | 455 kts | 271° |
| 2026-05-04 01:29 | 57.05069 | -31.48961 | 34289 ft | 451 kts | 271° |
| 2026-05-04 01:30 | 57.05386 | -31.60465 | 34296 ft | 452 kts | 272° |
| 2026-05-04 01:30 | 57.05693 | -31.72005 | 34298 ft | 452 kts | 271° |
| 2026-05-04 01:31 | 57.05987 | -31.83436 | 34301 ft | 451 kts | 272° |
| 2026-05-04 01:31 | 57.06272 | -31.94985 | 34299 ft | 453 kts | 271° |
| 2026-05-04 01:32 | 57.06548 | -32.06529 | 34295 ft | 451 kts | 271° |
| 2026-05-04 01:32 | 57.06813 | -32.18076 | 34305 ft | 454 kts | 271° |
| 2026-05-04 01:33 | 57.07068 | -32.29641 | 34301 ft | 451 kts | 271° |
| 2026-05-04 01:33 | 57.07309 | -32.41089 | 34302 ft | 453 kts | 271° |
| 2026-05-04 01:34 | 57.07544 | -32.52743 | 34303 ft | 458 kts | 270° |
| 2026-05-04 01:34 | 57.07768 | -32.64408 | 34299 ft | 456 kts | 271° |
| 2026-05-04 01:35 | 57.07982 | -32.76097 | 34307 ft | 458 kts | 270° |
| 2026-05-04 01:35 | 57.08184 | -32.87692 | 34302 ft | 457 kts | 270° |
| 2026-05-04 01:36 | 57.08376 | -32.99384 | 34306 ft | 458 kts | 270° |
| 2026-05-04 01:36 | 57.08557 | -33.11075 | 34305 ft | 457 kts | 269° |
| 2026-05-04 01:37 | 57.08728 | -33.22832 | 34311 ft | 463 kts | 269° |
| 2026-05-04 01:37 | 57.08888 | -33.34641 | 34302 ft | 465 kts | 270° |
| 2026-05-04 01:38 | 57.09039 | -33.46517 | 34304 ft | 465 kts | 269° |
| 2026-05-04 01:38 | 57.09179 | -33.58395 | 34309 ft | 464 kts | 269° |
| 2026-05-04 01:39 | 57.09307 | -33.70263 | 34305 ft | 464 kts | 270° |
| 2026-05-04 01:39 | 57.09424 | -33.82063 | 34313 ft | 465 kts | 269° |
| 2026-05-04 01:40 | 57.09529 | -33.93999 | 34307 ft | 469 kts | 269° |
| 2026-05-04 01:40 | 57.09625 | -34.06018 | 34306 ft | 470 kts | 268° |
| 2026-05-04 01:41 | 57.09710 | -34.18039 | 34312 ft | 470 kts | 269° |
| 2026-05-04 01:41 | 57.09783 | -34.30064 | 34312 ft | 470 kts | 268° |
| 2026-05-04 01:42 | 57.09844 | -34.42001 | 34322 ft | 470 kts | 269° |
| 2026-05-04 01:42 | 57.09894 | -34.54016 | 34314 ft | 469 kts | 268° |
| 2026-05-04 01:43 | 57.09932 | -34.66077 | 34309 ft | 473 kts | 268° |
| 2026-05-04 01:43 | 57.09958 | -34.78187 | 34317 ft | 474 kts | 268° |
| 2026-05-04 01:44 | 57.09974 | -34.90229 | 34313 ft | 474 kts | 268° |
| 2026-05-04 01:44 | 57.09978 | -35.02346 | 34315 ft | 474 kts | 268° |
| 2026-05-04 01:45 | 57.09970 | -35.14470 | 34314 ft | 474 kts | 268° |
| 2026-05-04 01:45 | 57.09936 | -35.32569 | 34316 ft | 475 kts | 268° |
| 2026-05-04 01:46 | 57.09898 | -35.44724 | 34312 ft | 475 kts | 268° |
| 2026-05-04 01:46 | 57.09849 | -35.56886 | 34315 ft | 476 kts | 268° |
| 2026-05-04 01:47 | 57.09788 | -35.69059 | 34314 ft | 476 kts | 267° |
| 2026-05-04 01:47 | 57.09716 | -35.81151 | 34309 ft | 476 kts | 267° |
| 2026-05-04 01:48 | 57.09631 | -35.93328 | 34314 ft | 476 kts | 267° |
| 2026-05-04 01:48 | 57.09535 | -36.05505 | 34312 ft | 477 kts | 267° |
| 2026-05-04 01:49 | 57.09427 | -36.17692 | 34308 ft | 477 kts | 267° |
| 2026-05-04 01:49 | 57.09307 | -36.29895 | 34314 ft | 477 kts | 267° |
| 2026-05-04 01:50 | 57.09176 | -36.42004 | 34311 ft | 477 kts | 267° |
| 2026-05-04 01:50 | 57.09032 | -36.54197 | 34311 ft | 477 kts | 267° |
| 2026-05-04 01:51 | 57.08876 | -36.66386 | 34308 ft | 477 kts | 267° |
| 2026-05-04 01:51 | 57.08708 | -36.78585 | 34305 ft | 477 kts | 267° |
| 2026-05-04 01:52 | 57.08529 | -36.90776 | 34314 ft | 477 kts | 267° |
| 2026-05-04 01:52 | 57.08339 | -37.02882 | 34305 ft | 477 kts | 267° |
| 2026-05-04 01:53 | 57.08137 | -37.15067 | 34309 ft | 477 kts | 266° |
| 2026-05-04 01:53 | 57.07922 | -37.27250 | 34315 ft | 477 kts | 266° |
| 2026-05-04 01:54 | 57.07697 | -37.39347 | 34305 ft | 477 kts | 266° |
| 2026-05-04 01:54 | 57.07459 | -37.51513 | 34310 ft | 475 kts | 266° |
| 2026-05-04 01:55 | 57.07210 | -37.63656 | 34308 ft | 476 kts | 266° |
| 2026-05-04 01:55 | 57.06948 | -37.75829 | 34312 ft | 477 kts | 266° |
| 2026-05-04 01:56 | 57.06676 | -37.87929 | 34305 ft | 477 kts | 266° |
| 2026-05-04 01:56 | 57.06391 | -38.00112 | 34303 ft | 477 kts | 266° |
| 2026-05-04 01:57 | 57.06094 | -38.12284 | 34306 ft | 477 kts | 266° |
| 2026-05-04 01:57 | 57.05785 | -38.24443 | 34301 ft | 475 kts | 266° |
| 2026-05-04 01:58 | 57.05465 | -38.36570 | 34304 ft | 475 kts | 266° |
| 2026-05-04 01:58 | 57.05136 | -38.48615 | 34302 ft | 475 kts | 265° |
| 2026-05-04 01:59 | 57.04793 | -38.60741 | 34297 ft | 475 kts | 266° |
| 2026-05-04 01:59 | 57.04438 | -38.72879 | 34299 ft | 477 kts | 265° |
| 2026-05-04 02:00 | 57.04069 | -38.85037 | 34301 ft | 477 kts | 265° |
| 2026-05-04 02:00 | 57.03690 | -38.97195 | 34303 ft | 478 kts | 265° |
| 2026-05-04 02:01 | 57.03301 | -39.09281 | 34290 ft | 477 kts | 265° |
| 2026-05-04 02:01 | 57.02899 | -39.21433 | 34293 ft | 477 kts | 265° |
| 2026-05-04 02:02 | 57.02484 | -39.33584 | 34295 ft | 477 kts | 265° |
| 2026-05-04 02:02 | 57.02058 | -39.45723 | 34291 ft | 476 kts | 265° |
| 2026-05-04 02:03 | 57.01624 | -39.57747 | 34295 ft | 475 kts | 265° |
| 2026-05-04 02:03 | 57.01176 | -39.69830 | 34291 ft | 474 kts | 265° |
| 2026-05-04 02:04 | 57.00718 | -39.81885 | 34288 ft | 474 kts | 265° |
| 2026-05-04 02:04 | 57.00248 | -39.93941 | 34289 ft | 473 kts | 265° |
| 2026-05-04 02:05 | 56.99739 | -40.05984 | 34287 ft | 474 kts | 264° |
| 2026-05-04 02:05 | 56.99029 | -40.17897 | 34288 ft | 473 kts | 262° |
| 2026-05-04 02:06 | 56.98259 | -40.29895 | 34283 ft | 473 kts | 263° |
| 2026-05-04 02:06 | 56.97511 | -40.41830 | 34281 ft | 470 kts | 263° |
| 2026-05-04 02:07 | 56.96772 | -40.53728 | 34277 ft | 469 kts | 263° |
| 2026-05-04 02:07 | 56.96033 | -40.65536 | 34283 ft | 470 kts | 263° |
| 2026-05-04 02:08 | 56.95277 | -40.77421 | 34277 ft | 470 kts | 263° |
| 2026-05-04 02:08 | 56.94508 | -40.89302 | 34279 ft | 470 kts | 263° |
| 2026-05-04 02:09 | 56.93727 | -41.01175 | 34278 ft | 469 kts | 263° |
| 2026-05-04 02:09 | 56.92944 | -41.12914 | 34274 ft | 467 kts | 263° |
| 2026-05-04 02:10 | 56.92147 | -41.24698 | 34276 ft | 466 kts | 263° |
| 2026-05-04 02:10 | 56.91338 | -41.36482 | 34276 ft | 466 kts | 263° |
| 2026-05-04 02:11 | 56.90519 | -41.48258 | 34275 ft | 467 kts | 262° |
| 2026-05-04 02:11 | 56.89694 | -41.59947 | 34268 ft | 466 kts | 262° |
| 2026-05-04 02:12 | 56.88853 | -41.71700 | 34262 ft | 464 kts | 263° |
| 2026-05-04 02:12 | 56.88009 | -41.83342 | 34264 ft | 461 kts | 262° |
| 2026-05-04 02:13 | 56.87155 | -41.94972 | 34259 ft | 461 kts | 262° |
| 2026-05-04 02:13 | 56.86296 | -42.06517 | 34258 ft | 462 kts | 262° |
| 2026-05-04 02:14 | 56.85420 | -42.18130 | 34269 ft | 461 kts | 262° |
| 2026-05-04 02:14 | 56.84534 | -42.29747 | 34263 ft | 462 kts | 262° |
| 2026-05-04 02:15 | 56.83637 | -42.41339 | 34263 ft | 460 kts | 262° |
| 2026-05-04 02:15 | 56.82735 | -42.52865 | 34251 ft | 457 kts | 262° |
| 2026-05-04 02:16 | 56.81830 | -42.64289 | 34248 ft | 458 kts | 262° |
| 2026-05-04 02:16 | 56.80909 | -42.75784 | 34249 ft | 458 kts | 262° |
| 2026-05-04 02:17 | 56.79976 | -42.87281 | 34249 ft | 457 kts | 261° |
| 2026-05-04 02:17 | 56.79033 | -42.98766 | 34246 ft | 459 kts | 261° |
| 2026-05-04 02:18 | 56.78079 | -43.10250 | 34246 ft | 458 kts | 261° |
| 2026-05-04 02:18 | 56.77120 | -43.21663 | 34255 ft | 458 kts | 261° |
| 2026-05-04 02:19 | 56.76145 | -43.33137 | 34237 ft | 458 kts | 261° |
| 2026-05-04 02:19 | 56.75159 | -43.44603 | 34233 ft | 458 kts | 261° |
| 2026-05-04 02:20 | 56.74163 | -43.56072 | 34246 ft | 459 kts | 261° |
| 2026-05-04 02:20 | 56.73163 | -43.67450 | 34231 ft | 458 kts | 261° |
| 2026-05-04 02:21 | 56.72145 | -43.78910 | 34228 ft | 457 kts | 261° |
| 2026-05-04 02:21 | 56.71121 | -43.90320 | 34228 ft | 457 kts | 260° |
| 2026-05-04 02:22 | 56.70086 | -44.01726 | 34225 ft | 457 kts | 260° |
| 2026-05-04 02:22 | 56.69045 | -44.13068 | 34219 ft | 457 kts | 260° |
| 2026-05-04 02:23 | 56.67988 | -44.24472 | 34222 ft | 458 kts | 260° |
| 2026-05-04 02:23 | 56.66922 | -44.35865 | 34225 ft | 456 kts | 260° |
| 2026-05-04 02:24 | 56.65845 | -44.47252 | 34218 ft | 456 kts | 259° |
| 2026-05-04 02:24 | 56.64767 | -44.58528 | 34231 ft | 457 kts | 259° |
| 2026-05-04 02:25 | 56.63671 | -44.69883 | 34232 ft | 456 kts | 259° |
| 2026-05-04 02:25 | 56.62563 | -44.81238 | 34226 ft | 457 kts | 259° |
| 2026-05-04 02:26 | 56.61447 | -44.92574 | 34211 ft | 456 kts | 259° |
| 2026-05-04 02:26 | 56.60320 | -45.03912 | 34208 ft | 456 kts | 259° |
| 2026-05-04 02:27 | 56.59190 | -45.15167 | 34209 ft | 456 kts | 258° |
| 2026-05-04 02:27 | 56.58043 | -45.26480 | 34206 ft | 456 kts | 258° |
| 2026-05-04 02:28 | 56.56886 | -45.37784 | 34203 ft | 456 kts | 258° |
| 2026-05-04 02:28 | 56.55718 | -45.49085 | 34202 ft | 456 kts | 258° |
| 2026-05-04 02:29 | 56.54550 | -45.60295 | 34200 ft | 456 kts | 258° |
| 2026-05-04 02:29 | 56.53362 | -45.71576 | 34196 ft | 456 kts | 258° |
| 2026-05-04 02:30 | 56.52165 | -45.82849 | 34197 ft | 456 kts | 258° |
| 2026-05-04 02:30 | 56.50958 | -45.94109 | 34190 ft | 456 kts | 258° |
| 2026-05-04 02:31 | 56.49750 | -46.05282 | 34189 ft | 455 kts | 257° |
| 2026-05-04 02:31 | 56.48524 | -46.16514 | 34186 ft | 455 kts | 257° |
| 2026-05-04 02:32 | 56.47288 | -46.27743 | 34177 ft | 455 kts | 257° |
| 2026-05-04 02:32 | 56.46042 | -46.38960 | 34182 ft | 455 kts | 257° |
| 2026-05-04 02:33 | 56.44798 | -46.50064 | 34174 ft | 452 kts | 257° |
| 2026-05-04 02:33 | 56.43542 | -46.61176 | 34170 ft | 451 kts | 257° |
| 2026-05-04 02:34 | 56.42278 | -46.72262 | 34163 ft | 451 kts | 257° |
| 2026-05-04 02:34 | 56.41003 | -46.83354 | 34169 ft | 451 kts | 257° |
| 2026-05-04 02:35 | 56.39727 | -46.94361 | 34161 ft | 451 kts | 257° |
| 2026-05-04 02:35 | 56.38435 | -47.05423 | 34157 ft | 450 kts | 257° |
| 2026-05-04 02:36 | 56.37136 | -47.16440 | 34153 ft | 447 kts | 258° |
| 2026-05-04 02:36 | 56.35835 | -47.27394 | 34150 ft | 446 kts | 258° |
| 2026-05-04 02:37 | 56.34533 | -47.38262 | 34144 ft | 447 kts | 258° |
| 2026-05-04 02:37 | 56.33212 | -47.49200 | 34134 ft | 447 kts | 258° |
| 2026-05-04 02:38 | 56.31882 | -47.60133 | 34133 ft | 447 kts | 258° |
| 2026-05-04 02:38 | 56.30542 | -47.71059 | 34134 ft | 447 kts | 257° |
| 2026-05-04 02:39 | 56.29203 | -47.81886 | 34124 ft | 445 kts | 258° |
| 2026-05-04 02:39 | 56.27853 | -47.92721 | 34123 ft | 444 kts | 258° |
| 2026-05-04 02:40 | 56.26493 | -48.03551 | 34124 ft | 443 kts | 258° |
| 2026-05-04 02:40 | 56.25127 | -48.14344 | 34115 ft | 441 kts | 258° |
| 2026-05-04 02:41 | 56.23758 | -48.25088 | 34103 ft | 441 kts | 258° |
| 2026-05-04 02:41 | 56.22388 | -48.35762 | 34103 ft | 441 kts | 258° |
| 2026-05-04 02:42 | 56.21000 | -48.46478 | 34097 ft | 437 kts | 260° |
| 2026-05-04 02:42 | 56.19618 | -48.57078 | 34098 ft | 435 kts | 260° |
| 2026-05-04 02:43 | 56.18232 | -48.67643 | 34090 ft | 435 kts | 260° |
| 2026-05-04 02:43 | 56.16844 | -48.78147 | 34084 ft | 435 kts | 260° |
| 2026-05-04 02:44 | 56.15438 | -48.88708 | 34079 ft | 435 kts | 260° |
| 2026-05-04 02:44 | 56.14024 | -48.99254 | 34081 ft | 435 kts | 260° |
| 2026-05-04 02:45 | 56.12600 | -49.09781 | 34071 ft | 431 kts | 261° |
| 2026-05-04 02:45 | 56.11196 | -49.20087 | 34069 ft | 427 kts | 261° |
| 2026-05-04 02:46 | 56.09784 | -49.30411 | 34059 ft | 427 kts | 261° |
| 2026-05-04 02:46 | 56.08362 | -49.40739 | 34066 ft | 427 kts | 261° |
| 2026-05-04 02:47 | 56.06930 | -49.51060 | 34057 ft | 427 kts | 261° |
| 2026-05-04 02:47 | 56.05499 | -49.61299 | 34053 ft | 427 kts | 261° |
| 2026-05-04 02:48 | 56.04049 | -49.71605 | 34052 ft | 427 kts | 260° |
| 2026-05-04 02:48 | 56.02595 | -49.81871 | 34050 ft | 426 kts | 260° |
| 2026-05-04 02:49 | 56.01142 | -49.92062 | 34042 ft | 426 kts | 259° |
| 2026-05-04 02:49 | 55.99415 | -50.02207 | 34043 ft | 430 kts | 253° |
| 2026-05-04 02:50 | 55.97134 | -50.12071 | 34033 ft | 429 kts | 251° |
| 2026-05-04 02:50 | 55.94762 | -50.21839 | 34031 ft | 429 kts | 251° |
| 2026-05-04 02:51 | 55.92394 | -50.31521 | 34021 ft | 428 kts | 250° |
| 2026-05-04 02:51 | 55.90020 | -50.41233 | 34023 ft | 427 kts | 250° |
| 2026-05-04 02:52 | 55.87644 | -50.50932 | 34018 ft | 427 kts | 250° |
| 2026-05-04 02:52 | 55.85263 | -50.60618 | 34020 ft | 427 kts | 250° |
| 2026-05-04 02:53 | 55.82873 | -50.70293 | 34016 ft | 427 kts | 250° |
| 2026-05-04 02:53 | 55.80489 | -50.79903 | 34013 ft | 427 kts | 250° |
| 2026-05-04 02:54 | 55.78088 | -50.89536 | 34007 ft | 425 kts | 249° |
| 2026-05-04 02:54 | 55.75694 | -50.99095 | 34003 ft | 423 kts | 249° |
| 2026-05-04 02:55 | 55.72095 | -51.13396 | 33992 ft | 423 kts | 249° |
| 2026-05-04 02:56 | 55.69702 | -51.22856 | 33992 ft | 423 kts | 249° |
| 2026-05-04 02:56 | 55.67286 | -51.32364 | 33992 ft | 423 kts | 249° |
| 2026-05-04 02:57 | 55.64873 | -51.41816 | 33977 ft | 416 kts | 248° |
| 2026-05-04 02:57 | 55.62496 | -51.51087 | 33993 ft | 412 kts | 248° |
| 2026-05-04 02:58 | 55.60135 | -51.60265 | 33979 ft | 413 kts | 248° |
| 2026-05-04 02:58 | 55.57751 | -51.69494 | 33994 ft | 413 kts | 247° |
| 2026-05-04 02:59 | 55.55360 | -51.78711 | 33987 ft | 413 kts | 247° |
| 2026-05-04 02:59 | 55.52963 | -51.87913 | 33971 ft | 413 kts | 247° |
| 2026-05-04 03:00 | 55.50558 | -51.97108 | 33984 ft | 413 kts | 247° |
| 2026-05-04 03:00 | 55.48163 | -52.06227 | 33981 ft | 413 kts | 247° |
| 2026-05-04 03:01 | 55.45744 | -52.15398 | 33979 ft | 413 kts | 247° |
| 2026-05-04 03:01 | 55.43317 | -52.24562 | 33972 ft | 413 kts | 247° |
| 2026-05-04 03:02 | 55.40884 | -52.33711 | 33969 ft | 413 kts | 247° |
| 2026-05-04 03:02 | 55.38461 | -52.42791 | 33963 ft | 412 kts | 246° |
| 2026-05-04 03:03 | 55.36033 | -52.51849 | 33964 ft | 408 kts | 246° |
| 2026-05-04 03:03 | 55.33611 | -52.60851 | 33969 ft | 407 kts | 245° |
| 2026-05-04 03:04 | 55.31189 | -52.69817 | 33960 ft | 406 kts | 245° |
| 2026-05-04 03:04 | 55.28781 | -52.78692 | 33961 ft | 405 kts | 245° |
| 2026-05-04 03:05 | 55.26351 | -52.87617 | 33952 ft | 405 kts | 245° |
| 2026-05-04 03:05 | 55.24327 | -52.95026 | 33951 ft | 406 kts | 245° |
| 2026-05-04 03:06 | 55.21879 | -53.03951 | 33945 ft | 407 kts | 245° |
| 2026-05-04 03:06 | 55.19422 | -53.12879 | 33948 ft | 407 kts | 245° |
| 2026-05-04 03:07 | 55.16959 | -53.21793 | 33944 ft | 407 kts | 245° |
| 2026-05-04 03:07 | 55.14507 | -53.30632 | 33947 ft | 407 kts | 244° |
| 2026-05-04 03:08 | 55.12030 | -53.39529 | 33944 ft | 407 kts | 244° |
| 2026-05-04 03:08 | 55.09151 | -53.49827 | 33940 ft | 404 kts | 244° |
| 2026-05-04 03:09 | 55.07083 | -53.57192 | 33941 ft | 403 kts | 244° |
| 2026-05-04 03:09 | 55.04630 | -53.65898 | 33935 ft | 403 kts | 244° |
| 2026-05-04 03:10 | 55.02154 | -53.74655 | 33936 ft | 403 kts | 243° |
| 2026-05-04 03:10 | 54.99674 | -53.83393 | 33961 ft | 403 kts | 243° |
| 2026-05-04 03:11 | 54.97187 | -53.92122 | 33933 ft | 402 kts | 243° |
| 2026-05-04 03:11 | 54.94717 | -54.00759 | 33933 ft | 400 kts | 242° |
| 2026-05-04 03:12 | 54.92240 | -54.09393 | 33933 ft | 398 kts | 242° |
| 2026-05-04 03:12 | 54.89759 | -54.18006 | 33932 ft | 398 kts | 242° |
| 2026-05-04 03:13 | 54.87272 | -54.26606 | 33929 ft | 398 kts | 242° |
| 2026-05-04 03:13 | 54.84796 | -54.35137 | 33925 ft | 398 kts | 242° |
| 2026-05-04 03:14 | 54.82298 | -54.43715 | 33930 ft | 398 kts | 242° |
| 2026-05-04 03:14 | 54.79789 | -54.52295 | 33922 ft | 399 kts | 241° |
| 2026-05-04 03:15 | 54.77272 | -54.60877 | 33919 ft | 399 kts | 241° |
| 2026-05-04 03:15 | 54.74750 | -54.69441 | 33918 ft | 399 kts | 241° |
| 2026-05-04 03:16 | 54.72238 | -54.77943 | 33919 ft | 399 kts | 240° |
| 2026-05-04 03:16 | 54.69701 | -54.86494 | 33915 ft | 400 kts | 240° |
| 2026-05-04 03:17 | 54.67159 | -54.95034 | 33910 ft | 400 kts | 240° |
| 2026-05-04 03:17 | 54.64601 | -55.03591 | 33913 ft | 402 kts | 240° |
| 2026-05-04 03:18 | 54.62050 | -55.12102 | 33908 ft | 402 kts | 240° |
| 2026-05-04 03:18 | 54.59476 | -55.20659 | 33911 ft | 402 kts | 240° |
| 2026-05-04 03:19 | 54.56896 | -55.29203 | 33911 ft | 402 kts | 239° |
| 2026-05-04 03:19 | 54.54306 | -55.37746 | 33911 ft | 402 kts | 239° |
| 2026-05-04 03:20 | 54.51729 | -55.46220 | 33906 ft | 403 kts | 239° |
| 2026-05-04 03:20 | 54.49120 | -55.54766 | 33904 ft | 404 kts | 239° |
| 2026-05-04 03:21 | 54.46500 | -55.63316 | 33904 ft | 404 kts | 239° |
| 2026-05-04 03:21 | 54.43875 | -55.71852 | 33903 ft | 404 kts | 238° |
| 2026-05-04 03:22 | 54.41263 | -55.80319 | 33899 ft | 404 kts | 238° |
| 2026-05-04 03:22 | 54.38624 | -55.88841 | 33898 ft | 404 kts | 238° |
| 2026-05-04 03:23 | 54.35976 | -55.97358 | 33900 ft | 406 kts | 238° |
| 2026-05-04 03:23 | 54.33310 | -56.05907 | 33896 ft | 407 kts | 238° |
| 2026-05-04 03:24 | 54.30655 | -56.14393 | 33900 ft | 407 kts | 238° |
| 2026-05-04 03:24 | 54.27974 | -56.22931 | 33880 ft | 407 kts | 237° |
| 2026-05-04 03:25 | 54.25285 | -56.31461 | 33881 ft | 407 kts | 237° |
| 2026-05-04 03:25 | 54.22590 | -56.39982 | 33902 ft | 407 kts | 237° |
| 2026-05-04 03:26 | 54.19893 | -56.48472 | 33879 ft | 411 kts | 236° |
| 2026-05-04 03:26 | 54.17155 | -56.57065 | 33901 ft | 412 kts | 236° |
| 2026-05-04 03:27 | 54.14408 | -56.65661 | 33880 ft | 412 kts | 236° |
| 2026-05-04 03:27 | 54.11656 | -56.74243 | 33880 ft | 413 kts | 236° |
| 2026-05-04 03:28 | 54.08899 | -56.82807 | 33899 ft | 412 kts | 236° |
| 2026-05-04 03:28 | 54.06151 | -56.91313 | 33878 ft | 413 kts | 236° |
| 2026-05-04 03:28 | 54.04853 | -56.95685 | 33986 ft | 416 kts | 241° |
| 2026-05-04 03:29 | 54.03857 | -57.00349 | 34101 ft | 423 kts | 248° |
| 2026-05-04 03:29 | 54.03254 | -57.05282 | 34217 ft | 431 kts | 256° |
| 2026-05-04 03:29 | 54.02960 | -57.10376 | 34351 ft | 434 kts | 259° |
| 2026-05-04 03:29 | 54.02762 | -57.15505 | 34485 ft | 435 kts | 260° |
| 2026-05-04 03:30 | 54.02608 | -57.20653 | 34659 ft | 436 kts | 260° |
| 2026-05-04 03:30 | 54.02470 | -57.25735 | 34792 ft | 436 kts | 260° |
| 2026-05-04 03:30 | 54.02326 | -57.30892 | 34924 ft | 436 kts | 260° |
| 2026-05-04 03:30 | 54.02172 | -57.36041 | 35034 ft | 437 kts | 260° |
| 2026-05-04 03:31 | 54.02006 | -57.41207 | 35142 ft | 437 kts | 260° |
| 2026-05-04 03:31 | 54.01833 | -57.46369 | 35259 ft | 438 kts | 260° |
| 2026-05-04 03:31 | 54.01654 | -57.51545 | 35371 ft | 438 kts | 260° |
| 2026-05-04 03:31 | 54.01470 | -57.56720 | 35477 ft | 439 kts | 260° |
| 2026-05-04 03:32 | 54.01284 | -57.61901 | 35604 ft | 439 kts | 260° |
| 2026-05-04 03:32 | 54.00904 | -57.72255 | 35656 ft | 444 kts | 259° |
| 2026-05-04 03:32 | 54.00710 | -57.77493 | 35788 ft | 444 kts | 260° |
| 2026-05-04 03:33 | 54.00514 | -57.82736 | 35869 ft | 445 kts | 260° |
| 2026-05-04 03:33 | 54.00115 | -57.93290 | 35881 ft | 448 kts | 259° |
| 2026-05-04 03:34 | 53.99707 | -58.03835 | 35872 ft | 447 kts | 259° |
| 2026-05-04 03:34 | 53.99293 | -58.14293 | 35866 ft | 447 kts | 259° |
| 2026-05-04 03:35 | 53.98864 | -58.24827 | 35871 ft | 447 kts | 259° |
| 2026-05-04 03:35 | 53.98424 | -58.35348 | 35863 ft | 447 kts | 259° |
| 2026-05-04 03:36 | 53.97977 | -58.45872 | 35867 ft | 447 kts | 259° |
| 2026-05-04 03:36 | 53.97524 | -58.56333 | 35867 ft | 448 kts | 258° |
| 2026-05-04 03:37 | 53.97054 | -58.66922 | 35863 ft | 450 kts | 258° |
| 2026-05-04 03:37 | 53.96578 | -58.77536 | 35856 ft | 451 kts | 258° |
| 2026-05-04 03:38 | 53.96091 | -58.88147 | 35856 ft | 451 kts | 258° |
| 2026-05-04 03:38 | 53.95595 | -58.98747 | 35858 ft | 450 kts | 258° |
| 2026-05-04 03:39 | 53.95092 | -59.09275 | 35850 ft | 450 kts | 258° |
| 2026-05-04 03:39 | 53.94576 | -59.19874 | 35854 ft | 451 kts | 258° |
| 2026-05-04 03:40 | 53.94050 | -59.30498 | 35849 ft | 452 kts | 258° |
| 2026-05-04 03:40 | 53.93514 | -59.41114 | 35847 ft | 451 kts | 258° |
| 2026-05-04 03:41 | 53.92971 | -59.51679 | 35845 ft | 453 kts | 257° |
| 2026-05-04 03:41 | 53.92415 | -59.62332 | 35846 ft | 453 kts | 257° |
| 2026-05-04 03:42 | 53.91851 | -59.72977 | 35837 ft | 453 kts | 257° |
| 2026-05-04 03:42 | 53.91275 | -59.83632 | 35851 ft | 454 kts | 257° |
| 2026-05-04 03:43 | 53.90692 | -59.94241 | 35841 ft | 455 kts | 257° |
| 2026-05-04 03:43 | 53.90095 | -60.04933 | 35845 ft | 456 kts | 257° |
| 2026-05-04 03:44 | 53.89489 | -60.15624 | 35838 ft | 456 kts | 257° |
| 2026-05-04 03:44 | 53.88873 | -60.26318 | 35846 ft | 456 kts | 257° |
| 2026-05-04 03:45 | 53.88252 | -60.36936 | 35833 ft | 456 kts | 256° |
| 2026-05-04 03:45 | 53.87616 | -60.47644 | 35849 ft | 457 kts | 256° |
| 2026-05-04 03:46 | 53.86971 | -60.58333 | 35837 ft | 456 kts | 256° |
| 2026-05-04 03:46 | 53.86318 | -60.69005 | 35832 ft | 455 kts | 256° |
| 2026-05-04 03:47 | 53.85659 | -60.79600 | 35833 ft | 455 kts | 256° |
| 2026-05-04 03:47 | 53.84987 | -60.90270 | 35832 ft | 455 kts | 256° |
| 2026-05-04 03:48 | 53.84306 | -61.00924 | 35833 ft | 455 kts | 256° |
| 2026-05-04 03:48 | 53.83614 | -61.11581 | 35847 ft | 455 kts | 256° |
| 2026-05-04 03:49 | 53.82909 | -61.22266 | 35828 ft | 459 kts | 256° |
| 2026-05-04 03:49 | 53.82197 | -61.32927 | 35827 ft | 459 kts | 256° |
| 2026-05-04 03:50 | 53.81473 | -61.43662 | 35826 ft | 459 kts | 256° |
| 2026-05-04 03:50 | 53.80740 | -61.54394 | 35824 ft | 459 kts | 256° |
| 2026-05-04 03:51 | 53.80001 | -61.65042 | 35822 ft | 459 kts | 256° |
| 2026-05-04 03:51 | 53.79247 | -61.75761 | 35848 ft | 459 kts | 255° |
| 2026-05-04 03:52 | 53.78483 | -61.86490 | 35822 ft | 460 kts | 255° |
| 2026-05-04 03:52 | 53.77708 | -61.97213 | 35821 ft | 460 kts | 255° |
| 2026-05-04 03:53 | 53.76929 | -62.07870 | 35823 ft | 461 kts | 255° |
| 2026-05-04 03:53 | 53.76134 | -62.18625 | 35818 ft | 461 kts | 255° |
| 2026-05-04 03:54 | 53.75329 | -62.29364 | 35816 ft | 461 kts | 255° |
| 2026-05-04 03:54 | 53.74515 | -62.40102 | 35816 ft | 461 kts | 255° |
| 2026-05-04 03:55 | 53.73697 | -62.50760 | 35815 ft | 461 kts | 255° |
| 2026-05-04 03:55 | 53.72862 | -62.61487 | 35817 ft | 461 kts | 255° |
| 2026-05-04 03:56 | 53.72020 | -62.72208 | 35816 ft | 461 kts | 255° |
| 2026-05-04 03:56 | 53.71169 | -62.82913 | 35815 ft | 460 kts | 255° |
| 2026-05-04 03:57 | 53.70313 | -62.93553 | 35818 ft | 461 kts | 254° |
| 2026-05-04 03:57 | 53.69439 | -63.04282 | 35826 ft | 461 kts | 254° |
| 2026-05-04 03:58 | 53.68111 | -63.20375 | 35820 ft | 462 kts | 254° |
| 2026-05-04 03:58 | 53.67213 | -63.31103 | 35815 ft | 462 kts | 254° |
| 2026-05-04 03:59 | 53.66312 | -63.41748 | 35820 ft | 462 kts | 253° |
| 2026-05-04 03:59 | 53.65395 | -63.52469 | 35819 ft | 462 kts | 253° |
| 2026-05-04 04:00 | 53.64469 | -63.63175 | 35824 ft | 462 kts | 253° |
| 2026-05-04 04:00 | 53.63533 | -63.73879 | 35832 ft | 462 kts | 253° |
| 2026-05-04 04:01 | 53.62590 | -63.84538 | 35823 ft | 464 kts | 253° |
| 2026-05-04 04:01 | 53.61631 | -63.95291 | 35821 ft | 464 kts | 253° |
| 2026-05-04 04:02 | 53.60663 | -64.06030 | 35819 ft | 464 kts | 253° |
| 2026-05-04 04:02 | 53.59685 | -64.16763 | 35821 ft | 464 kts | 253° |
| 2026-05-04 04:03 | 53.59330 | -64.27639 | 35823 ft | 476 kts | 265° |
| 2026-05-04 04:03 | 53.59789 | -64.38798 | 35816 ft | 479 kts | 267° |
| 2026-05-04 04:04 | 53.60383 | -64.49979 | 35813 ft | 479 kts | 267° |
| 2026-05-04 04:04 | 53.60970 | -64.61160 | 35811 ft | 479 kts | 267° |
| 2026-05-04 04:05 | 53.61521 | -64.72260 | 35814 ft | 479 kts | 267° |
| 2026-05-04 04:05 | 53.62055 | -64.83444 | 35854 ft | 479 kts | 267° |
| 2026-05-04 04:06 | 53.62577 | -64.94618 | 35800 ft | 479 kts | 267° |
| 2026-05-04 04:06 | 53.63089 | -65.05797 | 35801 ft | 479 kts | 267° |
| 2026-05-04 04:07 | 53.63592 | -65.16970 | 35800 ft | 478 kts | 267° |
| 2026-05-04 04:07 | 53.64081 | -65.28072 | 35802 ft | 478 kts | 266° |
| 2026-05-04 04:08 | 53.64562 | -65.39257 | 35828 ft | 478 kts | 267° |
| 2026-05-04 04:08 | 53.65034 | -65.50419 | 35792 ft | 476 kts | 266° |
| 2026-05-04 04:09 | 53.65490 | -65.61473 | 35798 ft | 476 kts | 266° |
| 2026-05-04 04:09 | 53.65938 | -65.72595 | 35800 ft | 476 kts | 266° |
| 2026-05-04 04:10 | 53.66375 | -65.83722 | 35797 ft | 475 kts | 266° |
| 2026-05-04 04:10 | 53.66802 | -65.94844 | 35820 ft | 475 kts | 266° |
| 2026-05-04 04:11 | 53.67220 | -66.05954 | 35805 ft | 474 kts | 266° |
| 2026-05-04 04:11 | 53.67623 | -66.16977 | 35806 ft | 474 kts | 266° |
| 2026-05-04 04:12 | 53.68018 | -66.28077 | 35804 ft | 474 kts | 266° |
| 2026-05-04 04:12 | 53.68402 | -66.39175 | 35803 ft | 474 kts | 266° |
| 2026-05-04 04:13 | 53.68777 | -66.50271 | 35836 ft | 474 kts | 267° |
| 2026-05-04 04:13 | 53.69140 | -66.61287 | 35812 ft | 473 kts | 266° |
| 2026-05-04 04:14 | 53.69494 | -66.72371 | 35819 ft | 473 kts | 266° |
| 2026-05-04 04:14 | 53.69837 | -66.83447 | 35818 ft | 473 kts | 266° |
| 2026-05-04 04:15 | 53.70170 | -66.94531 | 35817 ft | 473 kts | 266° |
| 2026-05-04 04:15 | 53.70490 | -67.05539 | 35838 ft | 473 kts | 266° |
| 2026-05-04 04:16 | 53.70804 | -67.16612 | 35816 ft | 472 kts | 266° |
| 2026-05-04 04:16 | 53.71106 | -67.27675 | 35815 ft | 472 kts | 266° |
| 2026-05-04 04:17 | 53.71398 | -67.38730 | 35807 ft | 472 kts | 266° |
| 2026-05-04 04:17 | 53.71677 | -67.49714 | 35808 ft | 472 kts | 266° |
| 2026-05-04 04:18 | 53.71948 | -67.60774 | 35826 ft | 472 kts | 266° |
| 2026-05-04 04:18 | 53.72208 | -67.71841 | 35810 ft | 472 kts | 266° |
| 2026-05-04 04:19 | 53.72460 | -67.82911 | 35806 ft | 472 kts | 266° |
| 2026-05-04 04:19 | 53.72700 | -67.93915 | 35804 ft | 472 kts | 266° |
| 2026-05-04 04:20 | 53.72930 | -68.04993 | 35802 ft | 473 kts | 266° |
| 2026-05-04 04:20 | 53.73151 | -68.16087 | 35802 ft | 473 kts | 266° |
| 2026-05-04 04:21 | 53.73362 | -68.27192 | 35799 ft | 473 kts | 266° |
| 2026-05-04 04:21 | 53.73562 | -68.38277 | 35798 ft | 473 kts | 266° |
| 2026-05-04 04:22 | 53.73751 | -68.49295 | 35799 ft | 473 kts | 266° |
| 2026-05-04 04:22 | 53.73932 | -68.60393 | 35793 ft | 472 kts | 266° |
| 2026-05-04 04:23 | 53.74101 | -68.71494 | 35787 ft | 472 kts | 266° |
| 2026-05-04 04:23 | 53.74258 | -68.82523 | 35797 ft | 473 kts | 266° |
| 2026-05-04 04:24 | 53.74408 | -68.93637 | 35791 ft | 473 kts | 266° |
| 2026-05-04 04:24 | 53.74548 | -69.04742 | 35794 ft | 473 kts | 265° |
| 2026-05-04 04:25 | 53.74678 | -69.15850 | 35795 ft | 473 kts | 265° |
| 2026-05-04 04:25 | 53.74796 | -69.26971 | 35806 ft | 473 kts | 266° |
| 2026-05-04 04:26 | 53.74904 | -69.38008 | 35784 ft | 473 kts | 266° |
| 2026-05-04 04:26 | 53.75001 | -69.49119 | 35797 ft | 473 kts | 266° |
| 2026-05-04 04:27 | 53.75089 | -69.60235 | 35787 ft | 473 kts | 266° |
| 2026-05-04 04:27 | 53.75166 | -69.71354 | 35788 ft | 473 kts | 266° |
| 2026-05-04 04:28 | 53.75233 | -69.82391 | 35797 ft | 473 kts | 266° |
| 2026-05-04 04:28 | 53.75290 | -69.93515 | 35788 ft | 473 kts | 266° |
| 2026-05-04 04:29 | 53.75337 | -70.04631 | 35785 ft | 473 kts | 266° |
| 2026-05-04 04:29 | 53.75373 | -70.15673 | 35785 ft | 473 kts | 266° |
| 2026-05-04 04:30 | 53.75400 | -70.26800 | 35789 ft | 473 kts | 265° |
| 2026-05-04 04:30 | 53.75415 | -70.37922 | 35799 ft | 473 kts | 266° |
| 2026-05-04 04:31 | 53.75421 | -70.49042 | 35791 ft | 474 kts | 266° |
| 2026-05-04 04:31 | 53.75416 | -70.60175 | 35792 ft | 474 kts | 266° |
| 2026-05-04 04:32 | 53.75402 | -70.71226 | 35788 ft | 474 kts | 265° |
| 2026-05-04 04:32 | 53.75377 | -70.82347 | 35788 ft | 473 kts | 265° |
| 2026-05-04 04:33 | 53.75341 | -70.93476 | 35797 ft | 474 kts | 266° |
| 2026-05-04 04:33 | 53.75295 | -71.04608 | 35790 ft | 474 kts | 266° |
| 2026-05-04 04:34 | 53.75240 | -71.15677 | 35784 ft | 474 kts | 266° |
| 2026-05-04 04:34 | 53.75174 | -71.26820 | 35784 ft | 474 kts | 266° |
| 2026-05-04 04:35 | 53.75097 | -71.37957 | 35782 ft | 474 kts | 265° |
| 2026-05-04 04:35 | 53.75009 | -71.49092 | 35787 ft | 474 kts | 266° |
| 2026-05-04 04:36 | 53.74912 | -71.60228 | 35783 ft | 474 kts | 266° |
| 2026-05-04 04:36 | 53.74806 | -71.71297 | 35786 ft | 474 kts | 266° |
| 2026-05-04 04:37 | 53.74559 | -71.93584 | 35785 ft | 474 kts | 265° |
| 2026-05-04 04:38 | 53.74420 | -72.04727 | 35785 ft | 474 kts | 266° |
| 2026-05-04 04:38 | 53.74272 | -72.15780 | 35780 ft | 474 kts | 265° |
| 2026-05-04 04:39 | 53.74113 | -72.26912 | 35782 ft | 474 kts | 265° |
| 2026-05-04 04:39 | 53.73944 | -72.38038 | 35779 ft | 474 kts | 265° |
| 2026-05-04 04:40 | 53.73765 | -72.49160 | 35781 ft | 474 kts | 265° |
| 2026-05-04 04:40 | 53.73573 | -72.60284 | 35787 ft | 474 kts | 266° |
| 2026-05-04 04:41 | 53.73375 | -72.71318 | 35785 ft | 473 kts | 265° |
| 2026-05-04 04:41 | 53.73166 | -72.82422 | 35787 ft | 473 kts | 265° |
| 2026-05-04 04:42 | 53.72945 | -72.93523 | 35784 ft | 473 kts | 265° |
| 2026-05-04 04:42 | 53.72714 | -73.04627 | 35783 ft | 473 kts | 265° |
| 2026-05-04 04:43 | 53.72475 | -73.15652 | 35780 ft | 473 kts | 265° |
| 2026-05-04 04:43 | 53.72224 | -73.26754 | 35779 ft | 473 kts | 265° |
| 2026-05-04 04:44 | 53.71961 | -73.37864 | 35777 ft | 473 kts | 265° |
| 2026-05-04 04:44 | 53.71690 | -73.48967 | 35777 ft | 473 kts | 265° |
| 2026-05-04 04:45 | 53.71410 | -73.59984 | 35774 ft | 473 kts | 265° |
| 2026-05-04 04:47 | 53.67944 | -73.98180 | 35773 ft | 470 kts | 256° |
| 2026-05-04 04:47 | 53.66675 | -74.08926 | 35769 ft | 470 kts | 257° |
| 2026-05-04 04:48 | 53.65397 | -74.19745 | 35767 ft | 470 kts | 257° |
| 2026-05-04 04:49 | 53.62171 | -74.46758 | 35766 ft | 471 kts | 257° |
| 2026-05-04 04:49 | 53.60872 | -74.57485 | 35768 ft | 471 kts | 256° |
| 2026-05-04 04:50 | 53.59554 | -74.68278 | 35771 ft | 470 kts | 256° |
| 2026-05-04 04:50 | 53.58227 | -74.79053 | 35759 ft | 470 kts | 256° |
| 2026-05-04 04:51 | 53.56889 | -74.89833 | 35764 ft | 471 kts | 256° |
| 2026-05-04 04:51 | 53.55551 | -75.00534 | 35761 ft | 471 kts | 256° |
| 2026-05-04 04:52 | 53.54194 | -75.11301 | 35754 ft | 470 kts | 256° |
| 2026-05-04 04:52 | 53.52829 | -75.22050 | 35756 ft | 470 kts | 256° |
| 2026-05-04 04:53 | 53.51453 | -75.32795 | 35754 ft | 470 kts | 256° |
| 2026-05-04 04:53 | 53.50068 | -75.43529 | 35740 ft | 470 kts | 256° |
| 2026-05-04 04:54 | 53.48681 | -75.54204 | 35751 ft | 471 kts | 256° |
| 2026-05-04 04:54 | 53.47276 | -75.64940 | 35734 ft | 471 kts | 256° |
| 2026-05-04 04:55 | 53.45860 | -75.75668 | 35734 ft | 471 kts | 256° |
| 2026-05-04 04:55 | 53.44435 | -75.86389 | 35729 ft | 471 kts | 256° |
| 2026-05-04 04:56 | 53.43010 | -75.97033 | 35740 ft | 471 kts | 256° |
| 2026-05-04 04:56 | 53.41564 | -76.07751 | 35730 ft | 471 kts | 256° |
| 2026-05-04 04:57 | 53.40109 | -76.18463 | 35728 ft | 472 kts | 256° |
| 2026-05-04 04:57 | 53.38644 | -76.29170 | 35726 ft | 472 kts | 256° |
| 2026-05-04 04:58 | 53.37179 | -76.39796 | 35722 ft | 472 kts | 256° |
| 2026-05-04 04:58 | 53.35695 | -76.50490 | 35719 ft | 471 kts | 256° |
| 2026-05-04 04:59 | 53.34200 | -76.61179 | 35714 ft | 472 kts | 256° |
| 2026-05-04 04:59 | 53.32696 | -76.71861 | 35713 ft | 472 kts | 256° |
| 2026-05-04 05:00 | 53.31192 | -76.82469 | 35709 ft | 472 kts | 256° |
| 2026-05-04 05:01 | 53.28904 | -76.98463 | 35704 ft | 472 kts | 255° |
| 2026-05-04 05:01 | 53.27367 | -77.09116 | 35704 ft | 472 kts | 255° |
| 2026-05-04 05:02 | 53.25821 | -77.19758 | 35702 ft | 471 kts | 256° |
| 2026-05-04 05:02 | 53.24276 | -77.30325 | 35688 ft | 471 kts | 255° |
| 2026-05-04 05:03 | 53.22710 | -77.40954 | 35690 ft | 471 kts | 255° |
| 2026-05-04 05:04 | 53.19552 | -77.62183 | 35681 ft | 472 kts | 255° |
| 2026-05-04 05:04 | 53.17970 | -77.72712 | 35672 ft | 471 kts | 255° |
| 2026-05-04 05:06 | 53.11511 | -78.15002 | 35657 ft | 471 kts | 255° |
| 2026-05-04 05:07 | 53.09884 | -78.25483 | 35656 ft | 471 kts | 255° |
| 2026-05-04 05:07 | 53.08237 | -78.36022 | 35642 ft | 471 kts | 255° |
| 2026-05-04 05:09 | 53.00470 | -78.83208 | 35621 ft | 470 kts | 246° |
| 2026-05-04 05:10 | 52.97665 | -78.93003 | 35623 ft | 470 kts | 243° |
| 2026-05-04 05:10 | 52.94698 | -79.02659 | 35614 ft | 470 kts | 243° |
| 2026-05-04 05:11 | 52.91722 | -79.12220 | 35608 ft | 470 kts | 243° |
| 2026-05-04 05:11 | 52.88725 | -79.21860 | 35608 ft | 470 kts | 243° |
| 2026-05-04 05:12 | 52.85735 | -79.31478 | 35603 ft | 470 kts | 243° |
| 2026-05-04 05:12 | 52.82739 | -79.41087 | 35602 ft | 470 kts | 243° |
| 2026-05-04 05:13 | 52.79733 | -79.50688 | 35594 ft | 470 kts | 242° |
| 2026-05-04 05:13 | 52.76742 | -79.60201 | 35594 ft | 470 kts | 242° |
| 2026-05-04 05:14 | 52.73721 | -79.69769 | 35592 ft | 470 kts | 242° |
| 2026-05-04 05:14 | 52.70691 | -79.79332 | 35590 ft | 470 kts | 242° |
| 2026-05-04 05:15 | 52.67675 | -79.88811 | 35590 ft | 470 kts | 242° |
| 2026-05-04 05:15 | 52.64631 | -79.98340 | 35587 ft | 470 kts | 242° |
| 2026-05-04 05:16 | 52.61582 | -80.07848 | 35582 ft | 470 kts | 242° |
| 2026-05-04 05:16 | 52.58524 | -80.17348 | 35576 ft | 470 kts | 243° |
| 2026-05-04 05:17 | 52.55465 | -80.26815 | 35577 ft | 469 kts | 242° |
| 2026-05-04 05:17 | 52.52419 | -80.36206 | 35577 ft | 469 kts | 242° |
| 2026-05-04 05:18 | 52.49345 | -80.45644 | 35570 ft | 469 kts | 242° |
| 2026-05-04 05:18 | 52.46262 | -80.55076 | 35564 ft | 469 kts | 242° |
| 2026-05-04 05:19 | 52.43171 | -80.64493 | 35561 ft | 469 kts | 242° |
| 2026-05-04 05:19 | 52.40094 | -80.73837 | 35559 ft | 469 kts | 242° |
| 2026-05-04 05:20 | 52.36989 | -80.83228 | 35559 ft | 469 kts | 242° |
| 2026-05-04 05:20 | 52.33872 | -80.92617 | 35561 ft | 470 kts | 242° |
| 2026-05-04 05:21 | 52.30747 | -81.01996 | 35562 ft | 470 kts | 242° |
| 2026-05-04 05:21 | 52.27636 | -81.11299 | 35561 ft | 470 kts | 242° |
| 2026-05-04 05:22 | 52.24494 | -81.20658 | 35562 ft | 471 kts | 242° |
| 2026-05-04 05:22 | 52.21342 | -81.30013 | 35562 ft | 471 kts | 242° |
| 2026-05-04 05:23 | 52.18182 | -81.39355 | 35562 ft | 470 kts | 242° |
| 2026-05-04 05:23 | 52.15017 | -81.48676 | 35562 ft | 470 kts | 242° |
| 2026-05-04 05:24 | 52.11866 | -81.57924 | 35562 ft | 470 kts | 242° |
| 2026-05-04 05:24 | 52.08687 | -81.67217 | 35562 ft | 470 kts | 242° |
| 2026-05-04 05:25 | 52.05506 | -81.76482 | 35553 ft | 469 kts | 242° |
| 2026-05-04 05:25 | 52.02318 | -81.85736 | 35553 ft | 469 kts | 242° |
| 2026-05-04 05:26 | 51.99143 | -81.94914 | 35552 ft | 469 kts | 242° |
| 2026-05-04 05:26 | 51.95946 | -82.04124 | 35551 ft | 468 kts | 242° |
| 2026-05-04 05:28 | 51.83120 | -82.40736 | 35541 ft | 468 kts | 242° |
| 2026-05-04 05:29 | 51.79894 | -82.49860 | 35538 ft | 468 kts | 242° |
| 2026-05-04 05:29 | 51.76663 | -82.58969 | 35542 ft | 467 kts | 242° |
| 2026-05-04 05:31 | 51.63700 | -82.95176 | 35552 ft | 466 kts | 242° |
| 2026-05-04 05:32 | 51.60441 | -83.04200 | 35550 ft | 467 kts | 241° |
| 2026-05-04 05:33 | 51.55567 | -83.17634 | 35559 ft | 465 kts | 242° |
| 2026-05-04 05:33 | 51.52300 | -83.26600 | 35559 ft | 465 kts | 242° |
| 2026-05-04 05:34 | 51.49029 | -83.35544 | 35563 ft | 464 kts | 242° |
| 2026-05-04 05:34 | 51.45755 | -83.44465 | 35561 ft | 464 kts | 242° |
| 2026-05-04 05:35 | 51.42499 | -83.53309 | 35566 ft | 464 kts | 241° |
| 2026-05-04 05:35 | 51.39210 | -83.62207 | 35554 ft | 464 kts | 242° |
| 2026-05-04 05:36 | 51.35921 | -83.71078 | 35559 ft | 463 kts | 242° |
| 2026-05-04 05:36 | 51.32627 | -83.79928 | 35550 ft | 463 kts | 242° |
| 2026-05-04 05:37 | 51.29357 | -83.88684 | 35562 ft | 461 kts | 242° |
| 2026-05-04 05:37 | 51.26066 | -83.97470 | 35562 ft | 461 kts | 242° |
| 2026-05-04 05:38 | 51.21118 | -84.10621 | 35557 ft | 461 kts | 241° |
| 2026-05-04 05:38 | 51.17809 | -84.19377 | 35556 ft | 461 kts | 242° |
| 2026-05-04 05:39 | 51.12866 | -84.32401 | 35555 ft | 460 kts | 242° |
| 2026-05-04 05:40 | 51.07904 | -84.45408 | 35561 ft | 458 kts | 241° |
| 2026-05-04 05:40 | 51.04590 | -84.54059 | 35559 ft | 458 kts | 241° |
| 2026-05-04 05:41 | 51.01293 | -84.62640 | 35560 ft | 458 kts | 241° |
| 2026-05-04 05:41 | 50.97969 | -84.71260 | 35559 ft | 458 kts | 241° |
| 2026-05-04 05:42 | 50.94638 | -84.79870 | 35559 ft | 458 kts | 241° |
| 2026-05-04 05:42 | 50.91300 | -84.88469 | 35559 ft | 458 kts | 241° |
| 2026-05-04 05:43 | 50.87955 | -84.97058 | 35559 ft | 458 kts | 241° |
| 2026-05-04 05:45 | 50.74541 | -85.31213 | 35561 ft | 457 kts | 241° |
| 2026-05-04 05:47 | 50.61089 | -85.65023 | 35556 ft | 456 kts | 240° |
| 2026-05-04 05:47 | 50.57706 | -85.73458 | 35552 ft | 456 kts | 240° |
| 2026-05-04 05:48 | 50.54342 | -85.81816 | 35553 ft | 455 kts | 240° |
| 2026-05-04 05:48 | 50.50952 | -85.90212 | 35558 ft | 455 kts | 240° |
| 2026-05-04 05:49 | 50.47556 | -85.98598 | 35548 ft | 455 kts | 240° |
| 2026-05-04 05:49 | 50.44155 | -86.06970 | 35552 ft | 455 kts | 240° |
| 2026-05-04 05:51 | 50.30536 | -86.40220 | 35552 ft | 453 kts | 241° |
| 2026-05-04 05:52 | 50.27120 | -86.48494 | 35555 ft | 453 kts | 241° |
| 2026-05-04 05:52 | 50.23702 | -86.56749 | 35549 ft | 453 kts | 240° |
| 2026-05-04 05:54 | 50.12581 | -86.91344 | 36733 ft | 442 kts | 251° |
| 2026-05-04 05:55 | 50.10246 | -87.00234 | 36879 ft | 444 kts | 250° |
| 2026-05-04 05:55 | 50.07880 | -87.09148 | 37056 ft | 446 kts | 250° |
| 2026-05-04 05:56 | 50.06689 | -87.13608 | 37167 ft | 447 kts | 250° |
| 2026-05-04 05:56 | 50.05494 | -87.18071 | 37277 ft | 447 kts | 250° |
| 2026-05-04 05:56 | 50.03109 | -87.26950 | 37445 ft | 448 kts | 250° |
| 2026-05-04 05:57 | 50.00693 | -87.35912 | 37536 ft | 450 kts | 250° |
| 2026-05-04 05:57 | 49.98277 | -87.44839 | 37541 ft | 447 kts | 250° |
| 2026-05-04 05:58 | 49.95859 | -87.53742 | 37531 ft | 447 kts | 250° |
| 2026-05-04 05:58 | 49.93455 | -87.62564 | 37526 ft | 446 kts | 250° |
| 2026-05-04 05:59 | 49.91032 | -87.71420 | 37513 ft | 445 kts | 250° |
| 2026-05-04 05:59 | 49.88611 | -87.80239 | 37511 ft | 444 kts | 249° |
| 2026-05-04 06:00 | 49.86599 | -87.87538 | 37511 ft | 443 kts | 249° |
| 2026-05-04 06:00 | 49.83781 | -87.97728 | 37509 ft | 443 kts | 249° |
| 2026-05-04 06:01 | 49.81349 | -88.06488 | 37494 ft | 443 kts | 249° |
| 2026-05-04 06:03 | 49.71572 | -88.41366 | 37470 ft | 441 kts | 249° |
| 2026-05-04 06:05 | 49.60505 | -88.80246 | 37450 ft | 440 kts | 249° |
| 2026-05-04 06:06 | 49.58443 | -88.87419 | 37451 ft | 440 kts | 248° |
| 2026-05-04 06:06 | 49.55958 | -88.96036 | 37442 ft | 440 kts | 248° |
| 2026-05-04 06:07 | 49.53465 | -89.04648 | 37444 ft | 440 kts | 248° |
| 2026-05-04 06:07 | 49.50969 | -89.13245 | 37428 ft | 440 kts | 248° |
| 2026-05-04 06:08 | 49.48469 | -89.21820 | 37437 ft | 439 kts | 248° |
| 2026-05-04 06:08 | 49.45982 | -89.30319 | 37431 ft | 439 kts | 248° |
| 2026-05-04 06:09 | 49.43473 | -89.38868 | 37436 ft | 439 kts | 248° |
| 2026-05-04 06:11 | 49.33387 | -89.72927 | 37427 ft | 439 kts | 248° |
| 2026-05-04 06:13 | 49.23219 | -90.06783 | 37423 ft | 438 kts | 248° |
| 2026-05-04 06:14 | 49.14235 | -90.36316 | 37421 ft | 439 kts | 248° |
| 2026-05-04 06:15 | 49.11649 | -90.44751 | 37415 ft | 439 kts | 248° |
| 2026-05-04 06:15 | 49.09054 | -90.53188 | 37416 ft | 440 kts | 248° |
| 2026-05-04 06:16 | 49.06450 | -90.61625 | 37419 ft | 438 kts | 248° |
| 2026-05-04 06:16 | 49.03872 | -90.69943 | 37426 ft | 436 kts | 248° |
| 2026-05-04 06:17 | 49.01278 | -90.78293 | 37417 ft | 436 kts | 248° |
| 2026-05-04 06:17 | 48.98676 | -90.86638 | 37416 ft | 436 kts | 248° |
| 2026-05-04 06:18 | 48.96068 | -90.94975 | 37409 ft | 436 kts | 248° |
| 2026-05-04 06:20 | 48.85585 | -91.28204 | 37406 ft | 437 kts | 248° |
| 2026-05-04 06:21 | 48.78999 | -91.48856 | 37408 ft | 436 kts | 247° |
| 2026-05-04 06:22 | 48.76352 | -91.57111 | 37400 ft | 436 kts | 247° |
| 2026-05-04 06:25 | 48.57701 | -92.14510 | 37399 ft | 433 kts | 247° |
| 2026-05-04 06:26 | 48.55022 | -92.22650 | 37399 ft | 433 kts | 247° |
| 2026-05-04 06:26 | 48.52337 | -92.30784 | 37403 ft | 433 kts | 247° |
| 2026-05-04 06:27 | 48.45612 | -92.51036 | 37399 ft | 433 kts | 247° |
| 2026-05-04 06:28 | 48.42907 | -92.59138 | 37401 ft | 433 kts | 247° |
| 2026-05-04 06:28 | 48.40193 | -92.67240 | 37382 ft | 433 kts | 246° |
| 2026-05-04 06:29 | 48.37480 | -92.75310 | 37403 ft | 431 kts | 246° |
| 2026-05-04 06:29 | 48.34794 | -92.83280 | 37405 ft | 430 kts | 246° |
| 2026-05-04 06:30 | 48.32083 | -92.91298 | 37409 ft | 430 kts | 246° |
| 2026-05-04 06:30 | 48.29366 | -92.99312 | 37404 ft | 430 kts | 246° |
| 2026-05-04 06:31 | 48.26641 | -93.07321 | 37422 ft | 431 kts | 246° |
| 2026-05-04 06:31 | 48.23928 | -93.15272 | 37408 ft | 431 kts | 246° |
| 2026-05-04 06:33 | 48.12950 | -93.47190 | 37426 ft | 430 kts | 246° |
| 2026-05-04 06:34 | 48.10217 | -93.55077 | 37423 ft | 430 kts | 246° |
| 2026-05-04 06:34 | 48.07458 | -93.63014 | 37431 ft | 430 kts | 246° |
| 2026-05-04 06:36 | 47.96389 | -93.94615 | 37446 ft | 430 kts | 246° |
| 2026-05-04 06:37 | 47.93604 | -94.02505 | 37432 ft | 430 kts | 246° |
| 2026-05-04 06:37 | 47.90817 | -94.10374 | 37445 ft | 428 kts | 246° |
| 2026-05-04 06:38 | 47.88050 | -94.18164 | 37446 ft | 428 kts | 246° |
| 2026-05-04 06:40 | 47.76835 | -94.49518 | 37462 ft | 429 kts | 246° |
| 2026-05-04 06:40 | 47.74036 | -94.57284 | 37467 ft | 429 kts | 246° |
| 2026-05-04 06:41 | 47.71209 | -94.65102 | 37461 ft | 429 kts | 246° |
| 2026-05-04 06:41 | 47.68379 | -94.72909 | 37432 ft | 429 kts | 246° |
| 2026-05-04 06:42 | 47.65547 | -94.80705 | 37424 ft | 429 kts | 246° |
| 2026-05-04 06:44 | 47.54075 | -95.11664 | 37424 ft | 430 kts | 244° |
| 2026-05-04 06:44 | 47.51071 | -95.19250 | 37444 ft | 430 kts | 244° |
| 2026-05-04 06:45 | 47.48054 | -95.26888 | 37448 ft | 430 kts | 244° |
| 2026-05-04 06:45 | 47.45046 | -95.34527 | 37462 ft | 430 kts | 245° |
| 2026-05-04 06:46 | 47.42041 | -95.42158 | 37456 ft | 430 kts | 245° |
| 2026-05-04 06:46 | 47.39051 | -95.49730 | 37481 ft | 430 kts | 245° |
| 2026-05-04 06:48 | 47.26982 | -95.80060 | 37487 ft | 430 kts | 245° |
| 2026-05-04 06:50 | 47.14842 | -96.10231 | 37492 ft | 428 kts | 245° |
| 2026-05-04 06:51 | 47.11816 | -96.17699 | 37492 ft | 428 kts | 245° |
| 2026-05-04 06:51 | 47.08768 | -96.25200 | 37492 ft | 427 kts | 245° |
| 2026-05-04 06:52 | 47.05722 | -96.32677 | 37499 ft | 427 kts | 245° |
| 2026-05-04 06:52 | 47.02670 | -96.40149 | 37495 ft | 427 kts | 245° |
| 2026-05-04 06:53 | 46.99635 | -96.47558 | 37463 ft | 427 kts | 245° |
| 2026-05-04 06:53 | 46.96574 | -96.55012 | 37497 ft | 427 kts | 245° |
| 2026-05-04 06:54 | 46.93507 | -96.62458 | 37511 ft | 427 kts | 245° |
| 2026-05-04 06:54 | 46.90437 | -96.69892 | 37498 ft | 427 kts | 245° |
| 2026-05-04 06:55 | 46.87383 | -96.77267 | 37508 ft | 427 kts | 245° |
| 2026-05-04 06:55 | 46.84303 | -96.84683 | 37508 ft | 427 kts | 245° |
| 2026-05-04 06:57 | 46.71968 | -97.14190 | 37512 ft | 426 kts | 245° |
| 2026-05-04 06:58 | 46.68874 | -97.21543 | 37512 ft | 426 kts | 245° |
| 2026-05-04 06:58 | 46.65775 | -97.28887 | 37512 ft | 426 kts | 245° |
| 2026-05-04 06:59 | 46.62674 | -97.36215 | 37513 ft | 424 kts | 245° |
| 2026-05-04 06:59 | 46.59601 | -97.43459 | 37522 ft | 423 kts | 245° |
| 2026-05-04 07:01 | 46.47212 | -97.72478 | 37530 ft | 423 kts | 245° |
| 2026-05-04 07:02 | 46.44095 | -97.79730 | 37529 ft | 424 kts | 244° |
| 2026-05-04 07:02 | 46.40974 | -97.86972 | 37528 ft | 424 kts | 244° |
| 2026-05-04 07:03 | 46.37849 | -97.94204 | 37543 ft | 424 kts | 244° |
| 2026-05-04 07:03 | 46.34739 | -98.01384 | 37538 ft | 424 kts | 244° |
| 2026-05-04 07:04 | 46.31606 | -98.08598 | 37540 ft | 423 kts | 244° |
| 2026-05-04 07:04 | 46.28473 | -98.15792 | 37535 ft | 423 kts | 244° |
| 2026-05-04 07:05 | 46.25339 | -98.22973 | 37551 ft | 421 kts | 244° |
| 2026-05-04 07:05 | 46.22218 | -98.30100 | 37550 ft | 420 kts | 244° |
| 2026-05-04 07:06 | 46.17554 | -98.40727 | 37552 ft | 419 kts | 244° |
| 2026-05-04 07:07 | 46.14425 | -98.47831 | 37578 ft | 420 kts | 244° |
| 2026-05-04 07:09 | 46.01877 | -98.76140 | 37574 ft | 419 kts | 244° |
| 2026-05-04 07:09 | 45.98734 | -98.83183 | 37589 ft | 418 kts | 244° |
| 2026-05-04 07:10 | 45.95589 | -98.90217 | 37592 ft | 418 kts | 243° |
| 2026-05-04 07:12 | 45.82974 | -99.18256 | 37597 ft | 420 kts | 243° |
| 2026-05-04 07:12 | 45.79791 | -99.25288 | 37594 ft | 421 kts | 243° |
| 2026-05-04 07:13 | 45.76623 | -99.32263 | 37599 ft | 420 kts | 243° |
| 2026-05-04 07:13 | 45.73435 | -99.39268 | 37594 ft | 420 kts | 243° |
| 2026-05-04 07:14 | 45.65453 | -99.56737 | 37597 ft | 422 kts | 243° |
| 2026-05-04 07:15 | 45.62237 | -99.63742 | 37604 ft | 422 kts | 243° |
| 2026-05-04 07:15 | 45.59015 | -99.70743 | 37603 ft | 422 kts | 243° |
| 2026-05-04 07:16 | 45.55789 | -99.77737 | 37604 ft | 422 kts | 243° |
| 2026-05-04 07:16 | 45.52558 | -99.84724 | 37599 ft | 422 kts | 243° |
| 2026-05-04 07:17 | 45.49343 | -99.91660 | 37606 ft | 422 kts | 243° |
| 2026-05-04 07:17 | 45.46099 | -99.98639 | 37607 ft | 422 kts | 243° |
| 2026-05-04 07:18 | 45.42855 | -100.05603 | 37612 ft | 422 kts | 243° |
| 2026-05-04 07:18 | 45.39603 | -100.12566 | 37588 ft | 422 kts | 242° |
| 2026-05-04 07:19 | 45.36368 | -100.19476 | 37612 ft | 422 kts | 242° |
| 2026-05-04 07:19 | 45.33113 | -100.26412 | 37612 ft | 422 kts | 242° |
| 2026-05-04 07:20 | 45.29853 | -100.33343 | 37602 ft | 422 kts | 242° |
| 2026-05-04 07:20 | 45.26582 | -100.40280 | 37620 ft | 423 kts | 242° |
| 2026-05-04 07:22 | 45.13478 | -100.67898 | 37644 ft | 423 kts | 242° |
| 2026-05-04 07:23 | 45.10186 | -100.74795 | 37644 ft | 423 kts | 242° |
| 2026-05-04 07:23 | 45.06916 | -100.81632 | 37659 ft | 423 kts | 242° |
| 2026-05-04 07:24 | 45.03610 | -100.88526 | 37654 ft | 424 kts | 242° |
| 2026-05-04 07:24 | 45.00287 | -100.95436 | 37667 ft | 425 kts | 241° |
| 2026-05-04 07:26 | 44.86974 | -101.22959 | 37684 ft | 425 kts | 241° |
| 2026-05-04 07:27 | 44.83632 | -101.29829 | 37684 ft | 425 kts | 241° |
| 2026-05-04 07:27 | 44.80282 | -101.36699 | 37681 ft | 426 kts | 241° |
| 2026-05-04 07:28 | 44.76938 | -101.43541 | 37678 ft | 428 kts | 241° |
| 2026-05-04 07:28 | 44.73554 | -101.50445 | 37693 ft | 429 kts | 240° |
| 2026-05-04 07:29 | 44.70162 | -101.57349 | 37698 ft | 429 kts | 240° |
| 2026-05-04 07:29 | 44.66764 | -101.64247 | 37698 ft | 429 kts | 240° |
| 2026-05-04 07:30 | 44.63365 | -101.71133 | 37702 ft | 429 kts | 240° |
| 2026-05-04 07:30 | 44.59983 | -101.77966 | 37689 ft | 429 kts | 240° |
| 2026-05-04 07:31 | 44.56567 | -101.84856 | 37694 ft | 431 kts | 240° |
| 2026-05-04 07:33 | 44.42788 | -102.12471 | 37717 ft | 434 kts | 239° |
| 2026-05-04 07:33 | 44.39316 | -102.19389 | 37717 ft | 435 kts | 239° |
| 2026-05-04 07:34 | 44.35838 | -102.26303 | 37724 ft | 435 kts | 239° |
| 2026-05-04 07:34 | 44.32375 | -102.33169 | 37706 ft | 435 kts | 239° |
| 2026-05-04 07:35 | 44.28880 | -102.40081 | 37735 ft | 436 kts | 239° |
| 2026-05-04 07:35 | 44.25378 | -102.46993 | 37735 ft | 437 kts | 239° |
| 2026-05-04 07:36 | 44.21865 | -102.53909 | 37744 ft | 437 kts | 238° |
| 2026-05-04 07:38 | 44.07804 | -102.81427 | 37784 ft | 437 kts | 238° |
| 2026-05-04 07:38 | 44.04267 | -102.88310 | 37788 ft | 438 kts | 238° |
| 2026-05-04 07:39 | 44.00747 | -102.95141 | 37786 ft | 438 kts | 238° |
| 2026-05-04 07:39 | 43.97534 | -103.02264 | 37790 ft | 432 kts | 249° |
| 2026-05-04 07:40 | 43.95337 | -103.09987 | 37798 ft | 430 kts | 253° |
| 2026-05-04 07:40 | 43.93361 | -103.17760 | 37765 ft | 430 kts | 254° |
| 2026-05-04 07:41 | 43.91395 | -103.25593 | 37799 ft | 430 kts | 253° |
| 2026-05-04 07:41 | 43.89406 | -103.33415 | 37822 ft | 430 kts | 253° |
| 2026-05-04 07:42 | 43.87400 | -103.41226 | 37840 ft | 430 kts | 253° |
| 2026-05-04 07:42 | 43.85385 | -103.49034 | 37856 ft | 430 kts | 253° |
| 2026-05-04 07:43 | 43.83376 | -103.56794 | 37884 ft | 431 kts | 253° |
| 2026-05-04 07:43 | 43.81348 | -103.64605 | 37892 ft | 431 kts | 253° |
| 2026-05-04 07:44 | 43.79316 | -103.72407 | 37889 ft | 431 kts | 253° |
| 2026-05-04 07:44 | 43.77279 | -103.80201 | 37873 ft | 431 kts | 253° |
| 2026-05-04 07:45 | 43.75232 | -103.88014 | 37847 ft | 433 kts | 253° |
| 2026-05-04 07:45 | 43.73183 | -103.95803 | 37848 ft | 435 kts | 253° |
| 2026-05-04 07:46 | 43.71109 | -104.03661 | 37829 ft | 435 kts | 253° |
| 2026-05-04 07:46 | 43.69030 | -104.11512 | 37823 ft | 435 kts | 253° |
| 2026-05-04 07:47 | 43.66945 | -104.19358 | 37822 ft | 435 kts | 253° |
| 2026-05-04 07:49 | 43.58542 | -104.50740 | 37827 ft | 437 kts | 252° |
| 2026-05-04 07:49 | 43.56422 | -104.58592 | 37828 ft | 437 kts | 252° |
| 2026-05-04 07:50 | 43.54311 | -104.66387 | 37824 ft | 437 kts | 252° |
| 2026-05-04 07:50 | 43.52179 | -104.74233 | 37825 ft | 437 kts | 252° |
| 2026-05-04 07:51 | 43.50042 | -104.82071 | 37821 ft | 437 kts | 252° |
| 2026-05-04 07:51 | 43.47900 | -104.89905 | 37826 ft | 437 kts | 252° |
| 2026-05-04 07:52 | 43.45753 | -104.97731 | 37819 ft | 438 kts | 252° |
| 2026-05-04 07:52 | 43.43608 | -105.05523 | 37820 ft | 438 kts | 252° |
| 2026-05-04 07:54 | 43.34911 | -105.36875 | 37810 ft | 441 kts | 252° |
| 2026-05-04 07:55 | 43.32710 | -105.44748 | 37807 ft | 441 kts | 252° |
| 2026-05-04 07:55 | 43.30503 | -105.52612 | 37798 ft | 442 kts | 252° |
| 2026-05-04 07:56 | 43.28291 | -105.60472 | 37798 ft | 442 kts | 252° |
| 2026-05-04 07:56 | 43.26087 | -105.68280 | 37787 ft | 442 kts | 251° |
| 2026-05-04 07:57 | 43.23863 | -105.76134 | 37791 ft | 442 kts | 251° |
| 2026-05-04 07:57 | 43.22748 | -105.80060 | 37680 ft | 442 kts | 251° |
| 2026-05-04 07:57 | 43.21635 | -105.83977 | 37398 ft | 441 kts | 251° |
| 2026-05-04 07:58 | 43.20518 | -105.87898 | 37120 ft | 442 kts | 251° |
| 2026-05-04 07:58 | 43.19400 | -105.91819 | 36857 ft | 442 kts | 251° |
| 2026-05-04 07:58 | 43.18279 | -105.95746 | 36596 ft | 443 kts | 251° |
| 2026-05-04 07:58 | 43.17172 | -105.99617 | 36334 ft | 443 kts | 251° |
| 2026-05-04 07:59 | 43.16046 | -106.03548 | 36071 ft | 444 kts | 250° |
| 2026-05-04 07:59 | 43.14915 | -106.07489 | 35820 ft | 444 kts | 250° |
| 2026-05-04 07:59 | 43.13781 | -106.11438 | 35394 ft | 449 kts | 248° |
| 2026-05-04 07:59 | 43.12627 | -106.15443 | 35396 ft | 454 kts | 250° |
| 2026-05-04 08:00 | 43.11473 | -106.19442 | 35286 ft | 449 kts | 250° |
| 2026-05-04 08:00 | 43.10329 | -106.23399 | 35054 ft | 446 kts | 250° |
| 2026-05-04 08:00 | 43.09021 | -106.27249 | 34824 ft | 448 kts | 243° |
| 2026-05-04 08:02 | 42.96439 | -106.51773 | 33072 ft | 454 kts | 236° |
| 2026-05-04 08:02 | 42.94586 | -106.55270 | 32800 ft | 455 kts | 236° |
| 2026-05-04 08:02 | 42.92731 | -106.58775 | 32541 ft | 456 kts | 236° |
| 2026-05-04 08:03 | 42.90872 | -106.62289 | 32282 ft | 457 kts | 236° |
| 2026-05-04 08:03 | 42.89035 | -106.65759 | 31936 ft | 458 kts | 236° |
| 2026-05-04 08:03 | 42.87166 | -106.69285 | 31815 ft | 459 kts | 236° |
| 2026-05-04 08:03 | 42.85294 | -106.72812 | 31807 ft | 459 kts | 236° |
| 2026-05-04 08:04 | 42.81552 | -106.79849 | 31808 ft | 458 kts | 236° |
| 2026-05-04 08:04 | 42.77809 | -106.86868 | 31807 ft | 458 kts | 236° |
| 2026-05-04 08:05 | 42.74074 | -106.93858 | 31798 ft | 454 kts | 236° |
| 2026-05-04 08:05 | 42.70392 | -107.00729 | 31798 ft | 452 kts | 236° |
| 2026-05-04 08:06 | 42.66690 | -107.07625 | 31794 ft | 451 kts | 237° |
| 2026-05-04 08:06 | 42.62996 | -107.14490 | 31795 ft | 449 kts | 236° |
| 2026-05-04 08:08 | 42.48231 | -107.41770 | 31790 ft | 449 kts | 236° |
| 2026-05-04 08:11 | 42.31650 | -107.72109 | 31793 ft | 446 kts | 236° |
| 2026-05-04 08:11 | 42.26122 | -107.82161 | 31788 ft | 447 kts | 236° |
| 2026-05-04 08:12 | 42.22412 | -107.88884 | 31794 ft | 447 kts | 236° |
| 2026-05-04 08:12 | 42.18695 | -107.95605 | 31793 ft | 447 kts | 235° |
| 2026-05-04 08:13 | 42.14970 | -108.02327 | 31799 ft | 447 kts | 235° |
| 2026-05-04 08:13 | 42.11244 | -108.09035 | 31798 ft | 447 kts | 235° |
| 2026-05-04 08:14 | 42.07537 | -108.15695 | 31802 ft | 447 kts | 235° |
| 2026-05-04 08:16 | 41.92596 | -108.42389 | 31802 ft | 447 kts | 235° |
| 2026-05-04 08:16 | 41.88838 | -108.49065 | 31808 ft | 449 kts | 234° |
| 2026-05-04 08:17 | 41.85066 | -108.55753 | 31810 ft | 449 kts | 234° |
| 2026-05-04 08:17 | 41.81290 | -108.62433 | 31813 ft | 449 kts | 234° |
| 2026-05-04 08:19 | 41.68064 | -108.85712 | 31952 ft | 451 kts | 234° |
| 2026-05-04 08:19 | 41.66159 | -108.89051 | 31972 ft | 452 kts | 234° |
| 2026-05-04 08:20 | 41.62347 | -108.95721 | 32005 ft | 451 kts | 234° |
| 2026-05-04 08:20 | 41.58421 | -109.02191 | 32005 ft | 452 kts | 228° |
| 2026-05-04 08:21 | 41.54024 | -109.08204 | 32003 ft | 453 kts | 226° |
| 2026-05-04 08:21 | 41.49547 | -109.14116 | 31996 ft | 453 kts | 226° |
| 2026-05-04 08:22 | 41.47299 | -109.17067 | 31839 ft | 453 kts | 226° |
| 2026-05-04 08:22 | 41.45053 | -109.20017 | 31843 ft | 454 kts | 226° |
| 2026-05-04 08:24 | 41.27154 | -109.43513 | 31838 ft | 451 kts | 226° |
| 2026-05-04 08:24 | 41.22685 | -109.49353 | 31838 ft | 450 kts | 226° |
| 2026-05-04 08:25 | 41.18259 | -109.55126 | 31837 ft | 448 kts | 226° |
| 2026-05-04 08:25 | 41.13807 | -109.60919 | 31837 ft | 448 kts | 226° |
| 2026-05-04 08:27 | 40.96001 | -109.83977 | 31858 ft | 448 kts | 225° |
| 2026-05-04 08:28 | 40.91544 | -109.89720 | 31855 ft | 447 kts | 225° |
| 2026-05-04 08:28 | 40.87084 | -109.95455 | 31871 ft | 447 kts | 225° |
| 2026-05-04 08:29 | 40.82623 | -110.01181 | 31867 ft | 446 kts | 225° |
| 2026-05-04 08:31 | 40.64888 | -110.23827 | 31874 ft | 443 kts | 225° |
| 2026-05-04 08:33 | 40.47222 | -110.46216 | 31843 ft | 440 kts | 225° |
| 2026-05-04 08:35 | 40.29598 | -110.68380 | 31836 ft | 439 kts | 224° |
| 2026-05-04 08:35 | 40.25190 | -110.73896 | 31839 ft | 438 kts | 224° |
| 2026-05-04 08:37 | 40.09806 | -110.93067 | 31856 ft | 437 kts | 224° |
| 2026-05-04 08:38 | 40.05395 | -110.98541 | 31862 ft | 437 kts | 224° |
| 2026-05-04 08:38 | 40.01019 | -111.03962 | 31859 ft | 436 kts | 224° |
| 2026-05-04 08:40 | 39.83466 | -111.25603 | 31866 ft | 435 kts | 224° |
| 2026-05-04 08:41 | 39.79060 | -111.31006 | 31857 ft | 435 kts | 224° |
| 2026-05-04 08:41 | 39.74662 | -111.36397 | 31854 ft | 434 kts | 225° |
| 2026-05-04 08:42 | 39.71018 | -111.40855 | 31855 ft | 432 kts | 225° |
| 2026-05-04 08:42 | 39.65937 | -111.47059 | 31854 ft | 432 kts | 225° |
| 2026-05-04 08:43 | 39.61558 | -111.52393 | 31850 ft | 432 kts | 225° |
| 2026-05-04 08:43 | 39.57179 | -111.57717 | 31841 ft | 432 kts | 225° |
| 2026-05-04 08:44 | 39.52797 | -111.63036 | 31838 ft | 432 kts | 225° |
| 2026-05-04 08:46 | 39.36149 | -111.83146 | 31820 ft | 422 kts | 227° |
| 2026-05-04 08:46 | 39.31866 | -111.88303 | 31816 ft | 420 kts | 227° |
| 2026-05-04 08:47 | 39.26898 | -111.94276 | 31813 ft | 420 kts | 227° |
| 2026-05-04 08:47 | 39.22620 | -111.99402 | 31811 ft | 420 kts | 226° |
| 2026-05-04 08:48 | 39.19062 | -112.03659 | 31818 ft | 418 kts | 227° |
| 2026-05-04 08:48 | 39.14839 | -112.08705 | 31849 ft | 412 kts | 227° |
| 2026-05-04 08:49 | 39.09956 | -112.14538 | 31893 ft | 411 kts | 227° |
| 2026-05-04 08:50 | 38.98161 | -112.28558 | 31998 ft | 407 kts | 227° |
| 2026-05-04 08:50 | 38.96078 | -112.31025 | 31988 ft | 407 kts | 227° |
| 2026-05-04 08:51 | 38.91911 | -112.35957 | 31987 ft | 407 kts | 228° |
| 2026-05-04 08:51 | 38.87788 | -112.40828 | 31989 ft | 404 kts | 227° |
| 2026-05-04 08:52 | 38.83650 | -112.45710 | 31948 ft | 404 kts | 227° |
| 2026-05-04 08:52 | 38.79524 | -112.50569 | 31795 ft | 401 kts | 227° |
| 2026-05-04 08:54 | 38.63130 | -112.69803 | 31812 ft | 400 kts | 227° |
| 2026-05-04 08:55 | 38.59031 | -112.74592 | 31856 ft | 399 kts | 227° |
| 2026-05-04 08:55 | 38.54937 | -112.79369 | 31887 ft | 399 kts | 227° |
| 2026-05-04 09:01 | 38.08264 | -113.23855 | 31791 ft | 404 kts | 219° |
| 2026-05-04 09:01 | 38.03517 | -113.27691 | 31789 ft | 405 kts | 219° |
| 2026-05-04 09:02 | 37.98759 | -113.31527 | 31777 ft | 405 kts | 218° |
| 2026-05-04 09:02 | 37.94031 | -113.35332 | 31821 ft | 405 kts | 218° |
| 2026-05-04 09:03 | 37.89276 | -113.39154 | 31834 ft | 405 kts | 219° |
| 2026-05-04 09:03 | 37.84508 | -113.42973 | 31837 ft | 405 kts | 218° |
| 2026-05-04 09:04 | 37.79720 | -113.46786 | 31787 ft | 408 kts | 218° |
| 2026-05-04 09:04 | 37.74903 | -113.50613 | 31797 ft | 410 kts | 218° |
| 2026-05-04 09:05 | 37.70111 | -113.54417 | 31797 ft | 410 kts | 218° |
| 2026-05-04 09:05 | 37.65287 | -113.58244 | 31799 ft | 409 kts | 218° |
| 2026-05-04 09:06 | 37.60461 | -113.62070 | 31801 ft | 410 kts | 218° |
| 2026-05-04 09:08 | 37.41077 | -113.77378 | 31786 ft | 413 kts | 218° |
| 2026-05-04 09:08 | 37.36203 | -113.81203 | 31784 ft | 413 kts | 218° |
| 2026-05-04 09:09 | 37.31372 | -113.84989 | 31769 ft | 412 kts | 218° |
| 2026-05-04 09:09 | 37.26505 | -113.88803 | 31769 ft | 413 kts | 218° |
| 2026-05-04 09:10 | 37.21638 | -113.92615 | 31760 ft | 413 kts | 218° |
| 2026-05-04 09:10 | 37.16770 | -113.96420 | 31761 ft | 413 kts | 218° |
| 2026-05-04 09:11 | 37.11888 | -114.00228 | 31751 ft | 412 kts | 218° |
| 2026-05-04 09:11 | 37.07049 | -114.03998 | 31739 ft | 412 kts | 218° |
| 2026-05-04 09:12 | 37.02176 | -114.07789 | 31732 ft | 411 kts | 219° |
| 2026-05-04 09:14 | 36.85893 | -114.26329 | 31683 ft | 395 kts | 229° |
| 2026-05-04 09:14 | 36.81959 | -114.31129 | 31685 ft | 395 kts | 229° |
| 2026-05-04 09:15 | 36.78025 | -114.35926 | 31679 ft | 395 kts | 229° |
| 2026-05-04 09:15 | 36.74098 | -114.40708 | 31677 ft | 393 kts | 229° |
| 2026-05-04 09:17 | 36.56799 | -114.61676 | 31675 ft | 386 kts | 229° |
| 2026-05-04 09:18 | 36.52951 | -114.66326 | 31679 ft | 386 kts | 229° |
| 2026-05-04 09:18 | 36.51048 | -114.68622 | 31547 ft | 386 kts | 229° |
| 2026-05-04 09:18 | 36.49123 | -114.70943 | 31309 ft | 386 kts | 229° |
| 2026-05-04 09:19 | 36.47190 | -114.73272 | 31075 ft | 388 kts | 229° |
| 2026-05-04 09:19 | 36.45249 | -114.75610 | 30845 ft | 389 kts | 229° |
| 2026-05-04 09:19 | 36.43300 | -114.77953 | 30589 ft | 390 kts | 229° |
| 2026-05-04 09:19 | 36.41351 | -114.80293 | 30366 ft | 389 kts | 228° |
| 2026-05-04 09:20 | 36.39411 | -114.82624 | 30142 ft | 389 kts | 228° |
| 2026-05-04 09:20 | 36.37468 | -114.84956 | 29914 ft | 388 kts | 228° |
| 2026-05-04 09:20 | 36.35529 | -114.87284 | 29699 ft | 388 kts | 228° |
| 2026-05-04 09:20 | 36.33616 | -114.89575 | 29420 ft | 386 kts | 228° |
| 2026-05-04 09:21 | 36.31685 | -114.91886 | 29146 ft | 385 kts | 228° |
| 2026-05-04 09:21 | 36.29760 | -114.94187 | 28887 ft | 384 kts | 228° |
| 2026-05-04 09:21 | 36.27839 | -114.96484 | 28623 ft | 383 kts | 228° |
| 2026-05-04 09:21 | 36.25922 | -114.98775 | 28354 ft | 382 kts | 227° |
| 2026-05-04 09:22 | 36.24009 | -115.01059 | 28092 ft | 382 kts | 227° |
| 2026-05-04 09:22 | 36.22102 | -115.03334 | 27840 ft | 380 kts | 227° |
| 2026-05-04 09:22 | 36.20201 | -115.05600 | 27579 ft | 378 kts | 227° |
| 2026-05-04 09:22 | 36.18307 | -115.07856 | 27326 ft | 377 kts | 227° |
| 2026-05-04 09:23 | 36.16446 | -115.10072 | 27120 ft | 377 kts | 227° |
| 2026-05-04 09:23 | 36.14557 | -115.12320 | 26886 ft | 376 kts | 227° |
| 2026-05-04 09:23 | 36.12676 | -115.14556 | 26614 ft | 375 kts | 227° |
| 2026-05-04 09:23 | 36.10794 | -115.16792 | 26368 ft | 375 kts | 227° |
| 2026-05-04 09:25 | 35.97707 | -115.32296 | 24674 ft | 372 kts | 227° |
| 2026-05-04 09:25 | 35.95842 | -115.34500 | 24455 ft | 372 kts | 226° |
| 2026-05-04 09:26 | 35.93977 | -115.36705 | 24239 ft | 371 kts | 227° |
| 2026-05-04 09:26 | 35.92108 | -115.38911 | 24003 ft | 372 kts | 226° |
| 2026-05-04 09:26 | 35.90240 | -115.41112 | 23786 ft | 371 kts | 226° |
| 2026-05-04 09:26 | 35.88372 | -115.43312 | 23564 ft | 371 kts | 226° |
| 2026-05-04 09:27 | 35.86507 | -115.45509 | 23310 ft | 371 kts | 226° |
| 2026-05-04 09:27 | 35.84668 | -115.47674 | 23040 ft | 370 kts | 226° |
| 2026-05-04 09:27 | 35.82810 | -115.49861 | 22787 ft | 369 kts | 226° |
| 2026-05-04 09:27 | 35.80949 | -115.52047 | 22525 ft | 368 kts | 226° |
| 2026-05-04 09:28 | 35.79098 | -115.54220 | 22261 ft | 367 kts | 226° |
| 2026-05-04 09:28 | 35.77252 | -115.56386 | 22003 ft | 366 kts | 226° |
| 2026-05-04 09:28 | 35.75412 | -115.58544 | 21749 ft | 365 kts | 226° |
| 2026-05-04 09:28 | 35.73573 | -115.60699 | 21493 ft | 364 kts | 226° |
| 2026-05-04 09:29 | 35.71740 | -115.62845 | 21242 ft | 363 kts | 226° |
| 2026-05-04 09:29 | 35.69914 | -115.64982 | 20999 ft | 362 kts | 226° |
| 2026-05-04 09:29 | 35.68118 | -115.67080 | 20763 ft | 361 kts | 225° |
| 2026-05-04 09:29 | 35.66300 | -115.69205 | 20517 ft | 360 kts | 225° |
| 2026-05-04 09:30 | 35.64487 | -115.71323 | 20272 ft | 359 kts | 225° |
| 2026-05-04 09:30 | 35.62677 | -115.73436 | 20031 ft | 358 kts | 225° |
| 2026-05-04 09:30 | 35.60872 | -115.75542 | 19786 ft | 357 kts | 225° |
| 2026-05-04 09:30 | 35.59071 | -115.77642 | 19556 ft | 356 kts | 225° |
| 2026-05-04 09:31 | 35.57276 | -115.79733 | 19336 ft | 356 kts | 225° |
| 2026-05-04 09:31 | 35.55481 | -115.81823 | 19098 ft | 355 kts | 225° |
| 2026-05-04 09:31 | 35.53713 | -115.83880 | 18864 ft | 354 kts | 225° |
| 2026-05-04 09:31 | 35.51926 | -115.85958 | 18641 ft | 353 kts | 225° |
| 2026-05-04 09:32 | 35.50146 | -115.88027 | 18409 ft | 353 kts | 225° |
| 2026-05-04 09:32 | 35.48362 | -115.90098 | 18164 ft | 352 kts | 225° |
| 2026-05-04 09:34 | 35.35699 | -116.04767 | 17023 ft | 369 kts | 225° |
| 2026-05-04 09:34 | 35.33830 | -116.06925 | 16918 ft | 369 kts | 225° |
| 2026-05-04 09:34 | 35.31961 | -116.09083 | 16801 ft | 369 kts | 225° |
| 2026-05-04 09:34 | 35.30096 | -116.11235 | 16672 ft | 369 kts | 224° |
| 2026-05-04 09:35 | 35.28229 | -116.13385 | 16541 ft | 369 kts | 224° |
| 2026-05-04 09:35 | 35.26362 | -116.15537 | 16316 ft | 368 kts | 224° |
| 2026-05-04 09:35 | 35.24496 | -116.17685 | 16101 ft | 368 kts | 224° |
| 2026-05-04 09:35 | 35.22631 | -116.19832 | 15855 ft | 368 kts | 224° |
| 2026-05-04 09:37 | 35.09585 | -116.34803 | 14218 ft | 370 kts | 223° |
| 2026-05-04 09:37 | 35.07714 | -116.36943 | 13977 ft | 367 kts | 223° |
| 2026-05-04 09:38 | 35.05869 | -116.39054 | 13767 ft | 369 kts | 223° |
| 2026-05-04 09:38 | 35.03992 | -116.41199 | 13557 ft | 369 kts | 223° |
| 2026-05-04 09:38 | 35.02128 | -116.43329 | 13297 ft | 367 kts | 223° |
| 2026-05-04 09:38 | 35.00262 | -116.45458 | 13119 ft | 368 kts | 223° |
| 2026-05-04 09:39 | 34.98397 | -116.47586 | 12903 ft | 366 kts | 223° |
| 2026-05-04 09:39 | 34.96539 | -116.49704 | 12666 ft | 366 kts | 223° |
| 2026-05-04 09:39 | 34.94685 | -116.51817 | 12421 ft | 364 kts | 223° |
| 2026-05-04 09:39 | 34.92840 | -116.53919 | 12174 ft | 360 kts | 223° |
| 2026-05-04 09:40 | 34.91006 | -116.56005 | 11949 ft | 362 kts | 223° |
| 2026-05-04 09:40 | 34.89162 | -116.58100 | 11863 ft | 362 kts | 224° |
| 2026-05-04 09:40 | 34.87352 | -116.60160 | 11863 ft | 361 kts | 224° |
| 2026-05-04 09:40 | 34.85523 | -116.62236 | 11868 ft | 358 kts | 224° |
| 2026-05-04 09:41 | 34.83700 | -116.64304 | 11871 ft | 359 kts | 224° |
| 2026-05-04 09:42 | 34.70958 | -116.78738 | 11866 ft | 358 kts | 223° |
| 2026-05-04 09:43 | 34.69140 | -116.80788 | 11861 ft | 356 kts | 224° |
| 2026-05-04 09:43 | 34.67351 | -116.82801 | 11862 ft | 347 kts | 223° |
| 2026-05-04 09:43 | 34.65587 | -116.84790 | 11859 ft | 347 kts | 224° |
| 2026-05-04 09:43 | 34.63805 | -116.86799 | 11852 ft | 351 kts | 224° |
| 2026-05-04 09:44 | 34.62021 | -116.88813 | 11862 ft | 349 kts | 224° |
| 2026-05-04 09:44 | 34.60242 | -116.90816 | 11853 ft | 349 kts | 224° |
| 2026-05-04 09:44 | 34.58460 | -116.92819 | 11853 ft | 349 kts | 224° |
| 2026-05-04 09:46 | 34.46035 | -117.06766 | 10977 ft | 358 kts | 224° |
| 2026-05-04 09:46 | 34.44216 | -117.08805 | 10818 ft | 355 kts | 224° |
| 2026-05-04 09:46 | 34.42402 | -117.10833 | 10586 ft | 356 kts | 224° |
| 2026-05-04 09:47 | 34.40608 | -117.12838 | 10373 ft | 354 kts | 224° |
| 2026-05-04 09:47 | 34.38806 | -117.14850 | 10141 ft | 353 kts | 224° |
| 2026-05-04 09:49 | 34.27042 | -117.27961 | 9966 ft | 322 kts | 224° |
| 2026-05-04 09:49 | 34.25438 | -117.29748 | 9970 ft | 309 kts | 224° |
| 2026-05-04 09:49 | 34.23878 | -117.31482 | 9970 ft | 305 kts | 224° |
| 2026-05-04 09:51 | 34.14508 | -117.41877 | 9974 ft | 275 kts | 225° |
| 2026-05-04 09:51 | 34.13119 | -117.43416 | 9989 ft | 270 kts | 225° |
| 2026-05-04 09:51 | 34.11755 | -117.44928 | 9992 ft | 270 kts | 225° |
| 2026-05-04 09:51 | 34.10354 | -117.46483 | 9995 ft | 281 kts | 225° |
| 2026-05-04 09:52 | 34.08884 | -117.48120 | 10007 ft | 292 kts | 225° |
| 2026-05-04 09:52 | 34.07554 | -117.49966 | 9998 ft | 292 kts | 238° |
| 2026-05-04 09:52 | 34.06712 | -117.52186 | 10000 ft | 292 kts | 251° |
| 2026-05-04 09:52 | 34.06100 | -117.54520 | 9998 ft | 292 kts | 253° |
| 2026-05-04 09:53 | 34.05522 | -117.56826 | 9990 ft | 281 kts | 253° |
| 2026-05-04 09:53 | 34.04966 | -117.59033 | 9991 ft | 271 kts | 253° |
| 2026-05-04 09:53 | 34.04425 | -117.61167 | 9998 ft | 270 kts | 253° |
| 2026-05-04 09:53 | 34.03873 | -117.63335 | 10000 ft | 274 kts | 253° |
| 2026-05-04 09:54 | 34.03294 | -117.65598 | 10004 ft | 289 kts | 253° |
| 2026-05-04 09:54 | 34.02700 | -117.67917 | 10013 ft | 286 kts | 253° |
| 2026-05-04 09:54 | 34.02208 | -117.70179 | 10009 ft | 273 kts | 259° |
| 2026-05-04 09:54 | 34.01942 | -117.72413 | 9893 ft | 266 kts | 262° |
| 2026-05-04 09:55 | 34.01729 | -117.74629 | 9575 ft | 267 kts | 263° |
| 2026-05-04 09:55 | 34.01519 | -117.76856 | 9238 ft | 268 kts | 263° |
| 2026-05-04 09:55 | 34.01308 | -117.79087 | 8908 ft | 268 kts | 263° |
| 2026-05-04 09:55 | 34.01096 | -117.81288 | 8596 ft | 268 kts | 263° |
| 2026-05-04 09:56 | 34.00879 | -117.83523 | 8266 ft | 268 kts | 263° |
| 2026-05-04 09:56 | 34.00664 | -117.85754 | 7929 ft | 268 kts | 263° |
| 2026-05-04 09:56 | 34.00447 | -117.87984 | 7599 ft | 268 kts | 263° |
| 2026-05-04 09:56 | 34.00223 | -117.90211 | 7287 ft | 267 kts | 262° |
| 2026-05-04 09:57 | 34.00333 | -117.92432 | 6995 ft | 266 kts | 280° |
| 2026-05-04 09:57 | 34.00506 | -117.94661 | 6664 ft | 267 kts | 270° |
| 2026-05-04 09:57 | 34.00477 | -117.96902 | 6324 ft | 268 kts | 266° |
| 2026-05-04 09:57 | 34.00323 | -117.99131 | 6043 ft | 266 kts | 260° |
| 2026-05-04 09:58 | 33.99997 | -118.01288 | 5847 ft | 265 kts | 261° |
| 2026-05-04 09:58 | 33.99619 | -118.03463 | 5829 ft | 266 kts | 255° |
| 2026-05-04 09:58 | 33.99100 | -118.05603 | 5820 ft | 266 kts | 251° |
| 2026-05-04 10:00 | 33.97169 | -118.20904 | 3311 ft | 254 kts | 263° |
| 2026-05-04 10:00 | 33.96970 | -118.22954 | 2974 ft | 238 kts | 262° |
| 2026-05-04 10:02 | 33.95916 | -118.33266 | 1286 ft | 133 kts | 262° |
| 2026-05-04 10:04 | 33.95140 | -118.40915 | 130 ft | 114 kts | 264° |
| 2026-05-04 10:04 | 33.95081 | -118.41624 | 127 ft | 63 kts | 254° |
| 2026-05-04 10:04 | 33.94925 | -118.41969 | 126 ft | 37 kts | 222° |
| 2026-05-04 10:04 | 33.94721 | -118.42266 | 125 ft | 53 kts | 239° |
| 2026-05-04 10:05 | 33.94599 | -118.42540 | 125 ft | 2 kts | 166° |